Zarling — WDD7883 — position and weather

sailwx.info

Track history (hours):
 
Tides and Currents Weather Stations Pressure Air Temp Water Temp Dewpoint Dewpoint Depression Visibility Wind Speed Wind Dir Waves Ship Positions

Zarling

Owner: Clean Rivers Co-op, Portland, OR. More information available from US FCC via Universal Licensing System.

Last reported at 2015-Jan-27 13:33 UTC. Time now 2015-Jan-27 14:24 UTC.
Position N 45°37' W 122°48'.

Length 12 m.

Type: Pollution control. MMSI: 3699126.

Date/timePositionNaut miles runAvg speedWind from/ knotsBaromVisibWave heightAir tempDewpointWater temp
2015-Jan-27 13:33N 45°37' W 122°48'293225.0
2015-Jan-27 13:32N 46°05' W 122°56'201409.3
2015-Jan-27 13:31N 46°12' W 123°23'4343.9
2015-Jan-27 12:33N 45°37' W 122°48'431794.8
2015-Jan-27 12:31N 46°12' W 123°23'20110.2
2015-Jan-27 12:20N 46°05' W 122°56'2936.2
2015-Jan-27 11:33N 45°37' W 122°48'431882.1
2015-Jan-27 11:31N 46°12' W 123°23'20563.7
2015-Jan-27 11:29N 46°05' W 122°56'2930.5
2015-Jan-27 10:33N 45°37' W 122°48'292867.2
2015-Jan-27 10:32N 46°05' W 122°56'20123.8
2015-Jan-27 10:22N 46°12' W 123°23'4351.9
2015-Jan-27 09:33N 45°37' W 122°48'29261.3
2015-Jan-27 09:26N 46°05' W 122°56'20318.6
2015-Jan-27 09:22N 46°12' W 123°23'2024.3
2015-Jan-27 08:32N 46°05' W 122°56'20178.7
2015-Jan-27 08:25N 46°12' W 123°23'43245.0
2015-Jan-27 08:15N 45°37' W 122°48'2940.4
2015-Jan-27 07:32N 46°05' W 122°56'20124.6
2015-Jan-27 07:22N 46°12' W 123°23'43243.8
2015-Jan-27 07:12N 45°37' W 122°48'2937.7
2015-Jan-27 06:26N 46°05' W 122°56'201437.0
2015-Jan-27 06:25N 46°12' W 123°23'43569.5
2015-Jan-27 06:21N 45°37' W 122°48'0 0.0
2015-Jan-27 05:33N 45°37' W 122°48'292580.0
2015-Jan-27 05:32N 46°05' W 122°56'20314.5
2015-Jan-27 05:28N 46°12' W 123°23'4346.4
2015-Jan-27 04:33N 45°37' W 122°48'43571.6
2015-Jan-27 04:28N 46°12' W 123°23'20572.5
2015-Jan-27 04:26N 46°05' W 122°56'2932.2
2015-Jan-27 03:33N 45°37' W 122°48'431659.5
2015-Jan-27 03:31N 46°12' W 123°23'20240.3
2015-Jan-27 03:26N 46°05' W 122°56'2932.2
2015-Jan-27 02:33N 45°37' W 122°48'292580.5
2015-Jan-27 02:32N 46°05' W 122°56'201437.0
2015-Jan-27 02:31N 46°12' W 123°23'0 0.0
2015-Jan-27 01:28N 46°12' W 123°23'431773.9
2015-Jan-27 01:27N 45°37' W 122°48'29258.6
2015-Jan-27 01:20N 46°05' W 122°56'2936.4
2015-Jan-27 00:33N 45°37' W 122°48'292293.3
2015-Jan-27 00:32N 46°05' W 122°56'20320.0
2015-Jan-27 00:28N 46°12' W 123°23'4346.4
2015-Jan-26 23:33N 45°37' W 122°48'292457.1
2015-Jan-26 23:32N 46°05' W 122°56'2055.8
2015-Jan-26 23:10N 46°12' W 123°23'4368.7
2015-Jan-26 22:33N 45°37' W 122°48'292345.4
2015-Jan-26 22:32N 46°05' W 122°56'20320.0
2015-Jan-26 22:28N 46°12' W 123°23'4346.4
2015-Jan-26 21:33N 45°37' W 122°48'29462.8
2015-Jan-26 21:29N 46°05' W 122°56'0 0.0
2015-Jan-26 20:32N 46°05' W 122°56'20314.5
2015-Jan-26 20:28N 46°12' W 123°23'43132.4
2015-Jan-26 20:09N 45°37' W 122°48'2946.9
2015-Jan-26 19:32N 46°05' W 122°56'29323.5
2015-Jan-26 19:27N 45°37' W 122°48'43561.2
2015-Jan-26 19:22N 46°12' W 123°23'0 0.0
2015-Jan-26 18:31N 46°12' W 123°23'431774.1
2015-Jan-26 18:30N 45°37' W 122°48'29462.8
2015-Jan-26 18:26N 46°05' W 122°56'34202.9
2015-Jan-26 18:16N 45°33' W 122°42'3445.8
2015-Jan-26 17:32N 46°05' W 122°56'201409.3
2015-Jan-26 17:31N 46°12' W 123°23'49946.5
2015-Jan-26 17:28N 45°33' W 122°42'6277.7
2015-Jan-26 17:27N 45°37' W 122°48'4346.3
2015-Jan-26 16:31N 46°12' W 123°23'20559.4
2015-Jan-26 16:29N 46°05' W 122°56'29753.3
2015-Jan-26 16:27N 45°37' W 122°48'0 0.0
2015-Jan-26 15:33N 45°37' W 122°48'43825.4
2015-Jan-26 15:30N 46°12' W 123°23'202155.5
2015-Jan-26 15:29N 46°05' W 122°56'2930.5
2015-Jan-26 14:33N 45°37' W 122°48'4325721.9
2015-Jan-26 14:33N 46°12' W 123°23'20185.1
2015-Jan-26 14:26N 46°05' W 122°56'2021.6
2015-Jan-26 13:30N 46°12' W 123°23'43902.5
2015-Jan-26 13:27N 45°37' W 122°48'292293.3
2015-Jan-26 13:26N 46°05' W 122°56'34106.5
2015-Jan-26 13:07N 45°33' W 122°42'610.3
2015-Jan-26 12:33N 45°37' W 122°48'4315433.2
2015-Jan-26 12:33N 46°12' W 123°23'202093.9
2015-Jan-26 12:32N 46°05' W 122°56'342202.3
2015-Jan-26 12:31N 45°33' W 122°42'6 6.0
2015-Jan-26 11:33N 45°37' W 122°48'43211.7
2015-Jan-26 11:21N 46°12' W 123°23'202093.9
2015-Jan-26 11:20N 46°05' W 122°56'0 0.0
2015-Jan-26 10:29N 46°05' W 122°56'20226.9
2015-Jan-26 10:24N 46°12' W 123°23'43897.4
2015-Jan-26 10:21N 45°37' W 122°48'2935.2
2015-Jan-26 09:32N 46°05' W 122°56'20227.6
2015-Jan-26 09:27N 46°12' W 123°23'43144.3
2015-Jan-26 09:09N 45°37' W 122°48'4371.1
2015-Jan-26 08:33N 46°12' W 123°23'201928.4
2015-Jan-26 08:32N 46°05' W 122°56'29794.0
2015-Jan-26 08:30N 45°37' W 122°48'0 0.0
2015-Jan-26 07:33N 45°37' W 122°48'4317149.9
2015-Jan-26 07:33N 46°12' W 123°23'2044.2
2015-Jan-26 07:05N 46°05' W 122°56'2034.6
2015-Jan-26 06:30N 46°12' W 123°23'43902.5
2015-Jan-26 06:27N 45°37' W 122°48'292150.0
2015-Jan-26 06:26N 46°05' W 122°56'0 0.0
2015-Jan-26 05:23N 46°05' W 122°56'29787.9
2015-Jan-26 05:21N 45°37' W 122°48'43821.0
2015-Jan-26 05:18N 46°12' W 123°23'4357.3
2015-Jan-26 04:33N 45°37' W 122°48'29134.2
2015-Jan-26 04:20N 46°05' W 122°56'20531.1
2015-Jan-26 04:18N 46°12' W 123°23'0 0.0
2015-Jan-26 03:33N 46°12' W 123°23'43442.2
2015-Jan-26 03:27N 45°37' W 122°48'29448.7
2015-Jan-26 03:23N 46°05' W 122°56'2932.4
2015-Jan-26 02:30N 45°37' W 122°48'4314030.1
2015-Jan-26 02:30N 46°12' W 123°23'20375.8
2015-Jan-26 02:27N 46°05' W 122°56'2932.1
2015-Jan-26 01:33N 45°37' W 122°48'292106.1
2015-Jan-26 01:32N 46°05' W 122°56'20512.5
2015-Jan-26 01:30N 46°12' W 123°23'2021.2
2015-Jan-26 00:32N 46°05' W 122°56'29794.0
2015-Jan-26 00:30N 45°37' W 122°48'4310290.0
2015-Jan-26 00:30N 46°12' W 123°23'4343.1
2015-Jan-25 23:30N 45°37' W 122°48'4310288.8
2015-Jan-25 23:30N 46°12' W 123°23'20184.1
2015-Jan-25 23:23N 46°05' W 122°56'2934.3
2015-Jan-25 22:33N 45°37' W 122°48'291947.1
2015-Jan-25 22:32N 46°05' W 122°56'2060.1
2015-Jan-25 22:12N 46°12' W 123°23'2030.8
2015-Jan-25 21:32N 46°05' W 122°56'0 0.0
2015-Jan-25 20:32N 46°05' W 122°56'20512.5
2015-Jan-25 20:30N 46°12' W 123°23'43448.7
2015-Jan-25 20:24N 45°37' W 122°48'0 0.0
2015-Jan-25 19:33N 45°37' W 122°48'43541.6
2015-Jan-25 19:28N 46°12' W 123°23'20568.1
2015-Jan-25 19:26N 46°05' W 122°56'0 0.0
2015-Jan-25 18:32N 46°05' W 122°56'20314.5
2015-Jan-25 18:28N 46°12' W 123°23'43357.2
2015-Jan-25 18:21N 45°37' W 122°48'0 0.0
2015-Jan-25 17:33N 45°37' W 122°48'291876.3
2015-Jan-25 17:32N 46°05' W 122°56'20314.5
2015-Jan-25 17:28N 46°12' W 123°23'2021.8
2015-Jan-25 16:32N 46°05' W 122°56'20123.4
2015-Jan-25 16:22N 46°12' W 123°23'43358.1
2015-Jan-25 16:15N 45°37' W 122°48'2940.1
2015-Jan-25 15:32N 46°05' W 122°56'20322.8
2015-Jan-25 15:28N 46°12' W 123°23'43253.0
2015-Jan-25 15:18N 45°37' W 122°48'0 0.0
2015-Jan-25 14:33N 45°37' W 122°48'431442.4
2015-Jan-25 14:31N 46°12' W 123°23'2086.2
2015-Jan-25 14:17N 46°05' W 122°56'2026.6
2015-Jan-25 13:31N 46°12' W 123°23'432236.7
2015-Jan-25 13:30N 45°37' W 122°48'2990.7
2015-Jan-25 13:11N 46°05' W 122°56'2945.3
2015-Jan-25 12:33N 45°37' W 122°48'291720.3
2015-Jan-25 12:32N 46°05' W 122°56'201382.7
2015-Jan-25 12:31N 46°12' W 123°23'0 0.0
2015-Jan-25 11:31N 46°12' W 123°23'432173.9
2015-Jan-25 11:30N 45°37' W 122°48'291779.7
2015-Jan-25 11:29N 46°05' W 122°56'0 0.0
2015-Jan-25 10:29N 46°05' W 122°56'20123.6
2015-Jan-25 10:19N 46°12' W 123°23'43619.9
2015-Jan-25 10:15N 45°37' W 122°48'0 0.0
2015-Jan-25 09:33N 45°37' W 122°48'431390.4
2015-Jan-25 09:31N 46°12' W 123°23'20563.7
2015-Jan-25 09:29N 46°05' W 122°56'2930.7
2015-Jan-25 08:33N 45°37' W 122°48'291720.3
2015-Jan-25 08:32N 46°05' W 122°56'2095.8
2015-Jan-25 08:19N 46°12' W 123°23'49191.8
2015-Jan-25 08:04N 45°33' W 122°42'3464.1
2015-Jan-25 07:33N 46°05' W 122°56'20872.5
2015-Jan-25 07:31N 46°12' W 123°23'43630.1
2015-Jan-25 07:27N 45°37' W 122°48'670.3
2015-Jan-25 07:22N 45°33' W 122°42'3440.7
2015-Jan-25 06:33N 46°05' W 122°56'20939.6
2015-Jan-25 06:31N 46°12' W 123°23'432338.4
2015-Jan-25 06:30N 45°37' W 122°48'2928.2
2015-Jan-25 05:29N 46°05' W 122°56'201437.0
2015-Jan-25 05:28N 46°12' W 123°23'432269.6
2015-Jan-25 05:27N 45°37' W 122°48'670.6
2015-Jan-25 05:22N 45°33' W 122°42'3440.4
2015-Jan-25 04:32N 46°05' W 122°56'20180.5
2015-Jan-25 04:25N 46°12' W 123°23'43612.4
2015-Jan-25 04:21N 45°37' W 122°48'625.1
2015-Jan-25 04:07N 45°33' W 122°42'610.4
2015-Jan-25 03:33N 45°37' W 122°48'43326.3
2015-Jan-25 03:25N 46°12' W 123°23'49972.8
2015-Jan-25 03:22N 45°33' W 122°42'34142.5
2015-Jan-25 03:08N 46°05' W 122°56'2945.3
2015-Jan-25 02:30N 45°37' W 122°48'431378.0
2015-Jan-25 02:28N 46°12' W 123°23'20149.9
2015-Jan-25 02:20N 46°05' W 122°56'2932.5
2015-Jan-25 01:27N 45°37' W 122°48'291638.4
2015-Jan-25 01:26N 46°05' W 122°56'2077.1
2015-Jan-25 01:10N 46°12' W 123°23'2032.0
2015-Jan-25 00:32N 46°05' W 122°56'29346.3
2015-Jan-25 00:27N 45°37' W 122°48'43524.9
2015-Jan-25 00:22N 46°12' W 123°23'4352.5
2015-Jan-24 23:33N 45°37' W 122°48'43517.9
2015-Jan-24 23:28N 46°12' W 123°23'2071.2
2015-Jan-24 23:11N 46°05' W 122°56'2942.1
2015-Jan-24 22:30N 45°37' W 122°48'431330.4
2015-Jan-24 22:28N 46°12' W 123°23'20568.1
2015-Jan-24 22:26N 46°05' W 122°56'2929.2
2015-Jan-24 21:27N 45°37' W 122°48'29131.2
2015-Jan-24 21:14N 46°05' W 122°56'2942.1
2015-Jan-24 20:33N 45°37' W 122°48'291563.9
2015-Jan-24 20:32N 46°05' W 122°56'201382.7
2015-Jan-24 20:31N 46°12' W 123°23'4344.3
2015-Jan-24 19:33N 45°37' W 122°48'29241.7
2015-Jan-24 19:26N 46°05' W 122°56'2095.2
2015-Jan-24 19:13N 46°12' W 123°23'49479.7
2015-Jan-24 19:07N 45°33' W 122°42'6 7.7
2015-Jan-24 18:21N 45°37' W 122°48'291495.6
2015-Jan-24 18:20N 46°05' W 122°56'34126.2
2015-Jan-24 18:04N 45°33' W 122°42'611.4
2015-Jan-24 17:33N 45°37' W 122°48'291563.6
2015-Jan-24 17:32N 46°05' W 122°56'34202.2
2015-Jan-24 17:22N 45°33' W 122°42'49162.7
2015-Jan-24 17:04N 46°12' W 123°23'2038.1
2015-Jan-24 16:32N 46°05' W 122°56'34506.8
2015-Jan-24 16:28N 45°33' W 122°42'6405.6
2015-Jan-24 16:27N 45°37' W 122°48'43151.0
2015-Jan-24 16:10N 46°12' W 123°23'2032.1
2015-Jan-24 15:32N 46°05' W 122°56'342018.8
2015-Jan-24 15:31N 45°33' W 122°42'491012.2
2015-Jan-24 15:28N 46°12' W 123°23'43371.0
2015-Jan-24 15:21N 45°37' W 122°48'0 0.0
2015-Jan-24 14:33N 45°37' W 122°48'291517.6
2015-Jan-24 14:32N 46°05' W 122°56'2076.8
2015-Jan-24 14:16N 46°12' W 123°23'49946.5
2015-Jan-24 14:13N 45°33' W 122°42'6 8.8
2015-Jan-24 13:33N 45°37' W 122°48'291540.3
2015-Jan-24 13:32N 46°05' W 122°56'20123.8
2015-Jan-24 13:22N 46°12' W 123°23'2024.3
2015-Jan-24 12:32N 46°05' W 122°56'29355.9
2015-Jan-24 12:27N 45°37' W 122°48'43848.0
2015-Jan-24 12:24N 46°12' W 123°23'49262.9
2015-Jan-24 12:13N 45°33' W 122°42'6 8.8
2015-Jan-24 11:33N 45°37' W 122°48'43862.2
2015-Jan-24 11:30N 46°12' W 123°23'201077.7
2015-Jan-24 11:29N 46°05' W 122°56'2930.8
2015-Jan-24 10:33N 45°37' W 122°48'29409.5
2015-Jan-24 10:29N 46°05' W 122°56'342053.0
2015-Jan-24 10:28N 45°33' W 122°42'49764.7
2015-Jan-24 10:24N 46°12' W 123°23'4347.7
2015-Jan-24 09:30N 45°37' W 122°48'6162.2
2015-Jan-24 09:28N 45°33' W 122°42'34251.8
2015-Jan-24 09:20N 46°05' W 122°56'2936.8
2015-Jan-24 08:33N 45°37' W 122°48'4325724.9
2015-Jan-24 08:33N 46°12' W 123°23'49574.1
2015-Jan-24 08:28N 45°33' W 122°42'341017.9
2015-Jan-24 08:26N 46°05' W 122°56'2932.6
2015-Jan-24 07:33N 45°37' W 122°48'4325724.9
2015-Jan-24 07:33N 46°12' W 123°23'201093.8
2015-Jan-24 07:32N 46°05' W 122°56'34508.9
2015-Jan-24 07:28N 45°33' W 122°42'6 6.4
2015-Jan-24 06:33N 45°37' W 122°48'666.4
2015-Jan-24 06:28N 45°33' W 122°42'493367.5
2015-Jan-24 06:27N 46°12' W 123°23'201077.7
2015-Jan-24 06:26N 46°05' W 122°56'2932.6
2015-Jan-24 05:33N 45°37' W 122°48'6157.5
2015-Jan-24 05:31N 45°33' W 122°42'34992.8
2015-Jan-24 05:29N 46°05' W 122°56'20666.2
2015-Jan-24 05:27N 46°12' W 123°23'4347.7
2015-Jan-24 04:33N 45°37' W 122°48'291413.7
2015-Jan-24 04:32N 46°05' W 122°56'20660.2
2015-Jan-24 04:30N 46°12' W 123°23'491368.0
2015-Jan-24 04:28N 45°33' W 122°42'6 6.4
2015-Jan-24 03:33N 45°37' W 122°48'291323.1
2015-Jan-24 03:32N 46°05' W 122°56'20254.5
2015-Jan-24 03:27N 46°12' W 123°23'49563.0
2015-Jan-24 03:22N 45°33' W 122°42'6 7.2
2015-Jan-24 02:33N 45°37' W 122°48'29167.8
2015-Jan-24 02:23N 46°05' W 122°56'342088.4
2015-Jan-24 02:22N 45°33' W 122°42'49183.2
2015-Jan-24 02:06N 46°12' W 123°23'4366.2
2015-Jan-24 01:27N 45°37' W 122°48'6158.6
2015-Jan-24 01:25N 45°33' W 122°42'493242.7
2015-Jan-24 01:24N 46°12' W 123°23'2075.9
2015-Jan-24 01:08N 46°05' W 122°56'3454.5
2015-Jan-24 00:31N 45°33' W 122°42'6490.8
2015-Jan-24 00:30N 45°37' W 122°48'43803.8
2015-Jan-24 00:27N 46°12' W 123°23'201110.4
2015-Jan-24 00:26N 46°05' W 122°56'2929.3
2015-Jan-23 23:27N 45°37' W 122°48'29167.3
2015-Jan-23 23:17N 46°05' W 122°56'34506.8
2015-Jan-23 23:13N 45°33' W 122°42'493183.8
2015-Jan-23 23:12N 46°12' W 123°23'4971.0
2015-Jan-23 22:31N 45°33' W 122°42'493573.6
2015-Jan-23 22:30N 46°12' W 123°23'43887.0
2015-Jan-23 22:27N 45°37' W 122°48'2977.2
2015-Jan-23 22:05N 46°05' W 122°56'0 0.0
2015-Jan-23 21:26N 46°05' W 122°56'291032.2
2015-Jan-23 21:24N 45°37' W 122°48'6151.6
2015-Jan-23 21:22N 45°33' W 122°42'0 0.0
2015-Jan-23 20:25N 45°33' W 122°42'6448.7
2015-Jan-23 20:24N 45°37' W 122°48'43281.1
2015-Jan-23 20:15N 46°12' W 123°23'201077.7
2015-Jan-23 20:14N 46°05' W 122°56'3447.0
2015-Jan-23 19:31N 45°33' W 122°42'34251.3
2015-Jan-23 19:23N 46°05' W 122°56'291042.6
2015-Jan-23 19:21N 45°37' W 122°48'43795.6
2015-Jan-23 19:18N 46°12' W 123°23'4357.4
2015-Jan-23 18:33N 45°37' W 122°48'4314030.1
2015-Jan-23 18:33N 46°12' W 123°23'201062.1
2015-Jan-23 18:32N 46°05' W 122°56'34506.8
2015-Jan-23 18:28N 45°33' W 122°42'6 6.4
2015-Jan-23 17:33N 45°37' W 122°48'29234.5
2015-Jan-23 17:26N 46°05' W 122°56'34201.9
2015-Jan-23 17:16N 45°33' W 122°42'493433.5
2015-Jan-23 17:15N 46°12' W 123°23'0 0.0
2015-Jan-23 16:33N 46°12' W 123°23'201110.4
2015-Jan-23 16:32N 46°05' W 122°56'291022.0
2015-Jan-23 16:30N 45°37' W 122°48'631.1
2015-Jan-23 16:19N 45°33' W 122°42'6 7.7
2015-Jan-23 15:33N 45°37' W 122°48'4311025.0
2015-Jan-23 15:33N 46°12' W 123°23'49360.3
2015-Jan-23 15:25N 45°33' W 122°42'34183.8
2015-Jan-23 15:14N 46°05' W 122°56'2942.3
2015-Jan-23 14:33N 45°37' W 122°48'291274.1
2015-Jan-23 14:32N 46°05' W 122°56'20637.3
2015-Jan-23 14:30N 46°12' W 123°23'49574.1
2015-Jan-23 14:25N 45°33' W 122°42'6 6.8
2015-Jan-23 13:34N 45°37' W 122°48'291243.4
2015-Jan-23 13:32N 46°05' W 122°56'20648.5
2015-Jan-23 13:30N 46°12' W 123°23'49126.3
2015-Jan-23 13:07N 45°33' W 122°42'610.5
2015-Jan-23 12:33N 45°37' W 122°48'43791.4
2015-Jan-23 12:30N 46°12' W 123°23'49262.9
2015-Jan-23 12:19N 45°33' W 122°42'34992.8
2015-Jan-23 12:17N 46°05' W 122°56'2939.5
2015-Jan-23 11:34N 45°37' W 122°48'4311026.2
2015-Jan-23 11:33N 46°12' W 123°23'20170.4
2015-Jan-23 11:26N 46°05' W 122°56'342053.0
2015-Jan-23 11:25N 45°33' W 122°42'4956.3
2015-Jan-23 10:33N 46°12' W 123°23'201062.1
2015-Jan-23 10:32N 46°05' W 122°56'34155.9
2015-Jan-23 10:19N 45°33' W 122°42'653.0
2015-Jan-23 10:13N 45°37' W 122°48'4365.5
2015-Jan-23 09:33N 46°12' W 123°23'43935.6
2015-Jan-23 09:31N 45°37' W 122°48'291214.3
2015-Jan-23 09:29N 46°05' W 122°56'342088.4
2015-Jan-23 09:28N 45°33' W 122°42'4953.2
2015-Jan-23 08:33N 46°12' W 123°23'201046.9
2015-Jan-23 08:32N 46°05' W 122°56'34515.4
2015-Jan-23 08:28N 45°33' W 122°42'696.7
2015-Jan-23 08:25N 45°37' W 122°48'4350.2
2015-Jan-23 07:33N 46°12' W 123°23'20294.3
2015-Jan-23 07:29N 46°05' W 122°56'342088.4
2015-Jan-23 07:28N 45°33' W 122°42'6602.6
2015-Jan-23 07:28N 45°37' W 122°48'2931.1
2015-Jan-23 06:32N 46°05' W 122°56'341985.7
2015-Jan-23 06:31N 45°33' W 122°42'6586.3
2015-Jan-23 06:31N 45°37' W 122°48'43408.3
2015-Jan-23 06:24N 46°12' W 123°23'2023.5
2015-Jan-23 05:32N 46°05' W 122°56'201559.3
2015-Jan-23 05:31N 46°12' W 123°23'49916.8
2015-Jan-23 05:28N 45°33' W 122°42'653.2
2015-Jan-23 05:22N 45°37' W 122°48'4351.2
2015-Jan-23 04:31N 46°12' W 123°23'43689.0
2015-Jan-23 04:28N 45°37' W 122°48'291228.6
2015-Jan-23 04:26N 46°05' W 122°56'341953.6
2015-Jan-23 04:25N 45°33' W 122°42'0 0.0
2015-Jan-23 03:28N 45°33' W 122°42'34946.3
2015-Jan-23 03:26N 46°05' W 122°56'20317.3
2015-Jan-23 03:22N 46°12' W 123°23'43386.8
2015-Jan-23 03:16N 45°37' W 122°48'4358.0
2015-Jan-23 02:31N 46°12' W 123°23'4958369.3
2015-Jan-23 02:31N 45°33' W 122°42'699.5
2015-Jan-23 02:28N 45°37' W 122°48'29126.6
2015-Jan-23 02:14N 46°05' W 122°56'0 0.0
2015-Jan-23 01:32N 46°05' W 122°56'201077.7
2015-Jan-23 01:31N 46°12' W 123°23'4925015.4
2015-Jan-23 01:31N 45°33' W 122°42'612.8
2015-Jan-23 01:04N 45°37' W 122°48'4379.6
2015-Jan-23 00:31N 46°12' W 123°23'434676.7
2015-Jan-23 00:31N 45°37' W 122°48'291053.0
2015-Jan-23 00:29N 46°05' W 122°56'342088.4
2015-Jan-23 00:28N 45°33' W 122°42'4951.3
2015-Jan-22 23:31N 46°12' W 123°23'434061.4
2015-Jan-22 23:31N 45°37' W 122°48'29383.6
2015-Jan-22 23:26N 46°05' W 122°56'342088.4
2015-Jan-22 23:25N 45°33' W 122°42'3438.1
2015-Jan-22 22:32N 46°05' W 122°56'201526.8
2015-Jan-22 22:31N 46°12' W 123°23'43698.3
2015-Jan-22 22:28N 45°37' W 122°48'641.3
2015-Jan-22 22:19N 45°33' W 122°42'4961.1
2015-Jan-22 21:31N 46°12' W 123°23'43698.4
2015-Jan-22 21:28N 45°37' W 122°48'29163.6
2015-Jan-22 21:17N 46°05' W 122°56'342018.8
2015-Jan-22 21:16N 45°33' W 122°42'3445.9
2015-Jan-22 20:32N 46°05' W 122°56'20177.9
2015-Jan-22 20:25N 46°12' W 123°23'43724.6
2015-Jan-22 20:22N 45°37' W 122°48'6137.0
2015-Jan-22 20:19N 45°33' W 122°42'3442.9
2015-Jan-22 19:32N 46°05' W 122°56'342202.3
2015-Jan-22 19:31N 45°33' W 122°42'49329.2
2015-Jan-22 19:22N 46°12' W 123°23'433764.6
2015-Jan-22 19:22N 45°37' W 122°48'2934.7
2015-Jan-22 18:32N 46°05' W 122°56'20318.6
2015-Jan-22 18:28N 46°12' W 123°23'43387.8
2015-Jan-22 18:22N 45°37' W 122°48'664.3
2015-Jan-22 18:16N 45°33' W 122°42'4965.0
2015-Jan-22 17:31N 46°12' W 123°23'20563.7
2015-Jan-22 17:29N 46°05' W 122°56'342125.0
2015-Jan-22 17:28N 45°33' W 122°42'654.3
2015-Jan-22 17:22N 45°37' W 122°48'2934.7
2015-Jan-22 16:32N 46°05' W 122°56'20314.5
2015-Jan-22 16:28N 46°12' W 123°23'434539.2
2015-Jan-22 16:28N 45°37' W 122°48'663.8
2015-Jan-22 16:22N 45°33' W 122°42'3440.3
2015-Jan-22 15:32N 46°05' W 122°56'201409.3
2015-Jan-22 15:31N 46°12' W 123°23'434539.7
2015-Jan-22 15:31N 45°37' W 122°48'6138.8
2015-Jan-22 15:28N 45°33' W 122°42'3436.0
2015-Jan-22 14:32N 46°05' W 122°56'201409.3
2015-Jan-22 14:31N 46°12' W 123°23'43724.6
2015-Jan-22 14:28N 45°37' W 122°48'630.4
2015-Jan-22 14:16N 45°33' W 122°42'3445.9
2015-Jan-22 13:32N 46°05' W 122°56'201382.7
2015-Jan-22 13:31N 46°12' W 123°23'49946.4
2015-Jan-22 13:28N 45°33' W 122°42'6727.3
2015-Jan-22 13:28N 45°37' W 122°48'2931.0
2015-Jan-22 12:32N 46°05' W 122°56'201357.1
2015-Jan-22 12:31N 46°12' W 123°23'49936.4
2015-Jan-22 12:28N 45°33' W 122°42'6879.4
2015-Jan-22 12:28N 45°37' W 122°48'2930.9
2015-Jan-22 11:32N 46°05' W 122°56'201495.6
2015-Jan-22 11:31N 46°12' W 123°23'434822.9
2015-Jan-22 11:31N 45°37' W 122°48'6134.4
2015-Jan-22 11:28N 45°33' W 122°42'3436.0
2015-Jan-22 10:32N 46°05' W 122°56'201409.3
2015-Jan-22 10:31N 46°12' W 123°23'49931.4
2015-Jan-22 10:28N 45°33' W 122°42'6878.8
2015-Jan-22 10:28N 45°37' W 122°48'4345.5
2015-Jan-22 09:31N 46°12' W 123°23'4929184.7
2015-Jan-22 09:31N 45°33' W 122°42'6844.2
2015-Jan-22 09:31N 45°37' W 122°48'291075.0
2015-Jan-22 09:29N 46°05' W 122°56'0 0.0
2015-Jan-22 08:32N 46°05' W 122°56'201437.0
2015-Jan-22 08:31N 46°12' W 123°23'49931.4
2015-Jan-22 08:28N 45°33' W 122°42'622.9
2015-Jan-22 08:13N 45°37' W 122°48'2939.6
2015-Jan-22 07:29N 46°05' W 122°56'201163.3
2015-Jan-22 07:28N 46°12' W 123°23'435321.8
2015-Jan-22 07:28N 45°37' W 122°48'630.3
2015-Jan-22 07:16N 45°33' W 122°42'4965.0
2015-Jan-22 06:31N 46°12' W 123°23'435321.8
2015-Jan-22 06:31N 45°37' W 122°48'29103.2
2015-Jan-22 06:14N 46°05' W 122°56'34513.2
2015-Jan-22 06:10N 45°33' W 122°42'0 0.0
2015-Jan-22 05:31N 45°33' W 122°42'34931.6
2015-Jan-22 05:29N 46°05' W 122°56'201559.4
2015-Jan-22 05:28N 46°12' W 123°23'43394.8
2015-Jan-22 05:22N 45°37' W 122°48'2934.7
2015-Jan-22 04:32N 46°05' W 122°56'201332.5
2015-Jan-22 04:31N 46°12' W 123°23'43271.2
2015-Jan-22 04:22N 45°37' W 122°48'6132.7
2015-Jan-22 04:19N 45°33' W 122°42'4961.0
2015-Jan-22 03:31N 46°12' W 123°23'4914592.3
2015-Jan-22 03:31N 45°33' W 122°42'34403.8
2015-Jan-22 03:26N 46°05' W 122°56'29395.5
2015-Jan-22 03:22N 45°37' W 122°48'4351.0
2015-Jan-22 02:31N 46°12' W 123°23'20568.1
2015-Jan-22 02:29N 46°05' W 122°56'29393.9
2015-Jan-22 02:25N 45°37' W 122°48'620.1
2015-Jan-22 02:07N 45°33' W 122°42'4981.0
2015-Jan-22 01:31N 46°12' W 123°23'435512.5
2015-Jan-22 01:31N 45°37' W 122°48'662.6
2015-Jan-22 01:25N 45°33' W 122°42'34248.7
2015-Jan-22 01:17N 46°05' W 122°56'2026.7
2015-Jan-22 00:31N 46°12' W 123°23'20563.7
2015-Jan-22 00:29N 46°05' W 122°56'29396.9
2015-Jan-22 00:25N 45°37' W 122°48'630.2
2015-Jan-22 00:13N 45°33' W 122°42'3449.2
2015-Jan-21 23:32N 46°05' W 122°56'201409.3
2015-Jan-21 23:31N 46°12' W 123°23'435935.8
2015-Jan-21 23:31N 45°37' W 122°48'661.9
2015-Jan-21 23:25N 45°33' W 122°42'3457.7
2015-Jan-21 22:50N 46°05' W 122°56'201465.7
2015-Jan-21 22:49N 46°12' W 123°23'0 0.0
2015-Jan-21 22:46N 46°12' W 123°23'20586.3
2015-Jan-21 22:44N 46°05' W 122°56'29234.5
2015-Jan-21 22:37N 45°37' W 122°48'43462.1
2015-Jan-21 22:31N 46°12' W 123°23'43749.2
2015-Jan-21 22:28N 45°37' W 122°48'291011.7
2015-Jan-21 22:26N 46°05' W 122°56'2021.1
2015-Jan-21 21:28N 46°12' W 123°23'20577.1
2015-Jan-21 21:26N 46°05' W 122°56'29400.1
2015-Jan-21 21:22N 45°37' W 122°48'2934.6
2015-Jan-21 20:32N 46°05' W 122°56'201382.7
2015-Jan-21 20:31N 46°12' W 123°23'43274.2
2015-Jan-21 20:22N 45°37' W 122°48'0 0.0
2015-Jan-21 19:31N 45°37' W 122°48'432411.7
2015-Jan-21 19:30N 46°12' W 123°23'20333.1
2015-Jan-21 19:26N 46°05' W 122°56'2022.9
2015-Jan-21 18:33N 46°12' W 123°23'201832.1
2015-Jan-21 18:32N 46°05' W 122°56'34290.5
2015-Jan-21 18:25N 45°33' W 122°42'619.3
2015-Jan-21 18:07N 45°37' W 122°48'4368.8
2015-Jan-21 17:30N 46°12' W 123°23'2099.3
2015-Jan-21 17:17N 46°05' W 122°56'29234.6
2015-Jan-21 17:10N 45°37' W 122°48'4368.9
2015-Jan-21 16:33N 46°12' W 123°23'202931.4
2015-Jan-21 16:32N 46°05' W 122°56'29404.7
2015-Jan-21 16:28N 45°37' W 122°48'4346.5
2015-Jan-21 15:33N 46°12' W 123°23'431607.8
2015-Jan-21 15:31N 45°37' W 122°48'29359.7
2015-Jan-21 15:26N 46°05' W 122°56'34106.8
2015-Jan-21 15:07N 45°33' W 122°42'4984.1
2015-Jan-21 14:33N 46°12' W 123°23'492161.8
2015-Jan-21 14:31N 45°33' W 122°42'341009.4
2015-Jan-21 14:29N 46°05' W 122°56'291413.7
2015-Jan-21 14:28N 45°37' W 122°48'2930.8
2015-Jan-21 13:32N 46°05' W 122°56'20472.8
2015-Jan-21 13:30N 46°12' W 123°23'49673.5
2015-Jan-21 13:25N 45°33' W 122°42'656.1
2015-Jan-21 13:19N 45°37' W 122°48'2936.8
2015-Jan-21 12:32N 46°05' W 122°56'291495.9
2015-Jan-21 12:31N 45°37' W 122°48'43578.1
2015-Jan-21 12:27N 46°12' W 123°23'2022.4
2015-Jan-21 11:32N 46°05' W 122°56'20469.8
2015-Jan-21 11:30N 46°12' W 123°23'431624.7
2015-Jan-21 11:28N 45°37' W 122°48'4346.4
2015-Jan-21 10:33N 46°12' W 123°23'202931.4
2015-Jan-21 10:32N 46°05' W 122°56'29169.2
2015-Jan-21 10:22N 45°37' W 122°48'623.7
2015-Jan-21 10:07N 45°33' W 122°42'4984.2
2015-Jan-21 09:32N 46°12' W 123°23'43567.5
2015-Jan-21 09:28N 45°37' W 122°48'29947.0
2015-Jan-21 09:26N 46°05' W 122°56'34289.8
2015-Jan-21 09:19N 45°33' W 122°42'4962.6
2015-Jan-21 08:33N 46°12' W 123°23'20359.2
2015-Jan-21 08:29N 46°05' W 122°56'29414.5
2015-Jan-21 08:25N 45°37' W 122°48'629.7
2015-Jan-21 08:13N 45°33' W 122°42'3449.2
2015-Jan-21 07:32N 46°05' W 122°56'20469.8
2015-Jan-21 07:30N 46°12' W 123°23'49665.8
2015-Jan-21 07:25N 45°33' W 122°42'6109.9
2015-Jan-21 07:22N 45°37' W 122°48'4352.0
2015-Jan-21 06:33N 46°12' W 123°23'20190.8
2015-Jan-21 06:26N 46°05' W 122°56'29419.5
2015-Jan-21 06:22N 45°37' W 122°48'623.7
2015-Jan-21 06:07N 45°33' W 122°42'4984.3
2015-Jan-21 05:33N 46°12' W 123°23'203053.6
2015-Jan-21 05:32N 46°05' W 122°56'29419.6
2015-Jan-21 05:28N 45°37' W 122°48'616.8
2015-Jan-21 05:07N 45°33' W 122°42'4971.9
2015-Jan-21 04:27N 46°12' W 123°23'203053.6
2015-Jan-21 04:26N 46°05' W 122°56'29419.5
2015-Jan-21 04:22N 45°37' W 122°48'623.6
2015-Jan-21 04:07N 45°33' W 122°42'4984.3
2015-Jan-21 03:33N 46°12' W 123°23'20362.8
2015-Jan-21 03:29N 46°05' W 122°56'34504.7
2015-Jan-21 03:25N 45°33' W 122°42'6111.7
2015-Jan-21 03:22N 45°37' W 122°48'4352.0
2015-Jan-21 02:33N 46°12' W 123°23'203053.6
2015-Jan-21 02:32N 46°05' W 122°56'291540.6
2015-Jan-21 02:31N 45°37' W 122°48'2929.2
2015-Jan-21 01:32N 46°05' W 122°56'29417.8
2015-Jan-21 01:28N 45°37' W 122°48'43586.8
2015-Jan-21 01:24N 46°12' W 123°23'49278.4
2015-Jan-21 01:13N 45°33' W 122°42'4971.8
2015-Jan-21 00:33N 46°12' W 123°23'43573.7
2015-Jan-21 00:28N 45°37' W 122°48'29905.2
2015-Jan-21 00:26N 46°05' W 122°56'342053.0
2015-Jan-21 00:25N 45°33' W 122°42'6 6.2
2015-Jan-20 23:28N 45°37' W 122°48'431641.8
2015-Jan-20 23:27N 46°12' W 123°23'2098.4
2015-Jan-20 23:14N 46°05' W 122°56'2029.4
2015-Jan-20 22:33N 46°12' W 123°23'431774.1
2015-Jan-20 22:31N 45°37' W 122°48'29889.8
2015-Jan-20 22:29N 46°05' W 122°56'34126.4
2015-Jan-20 22:13N 45°33' W 122°42'3449.2
2015-Jan-20 21:32N 46°05' W 122°56'20479.0
2015-Jan-20 21:30N 46°12' W 123°23'431715.0
2015-Jan-20 21:28N 45°37' W 122°48'6123.3
2015-Jan-20 21:25N 45°33' W 122°42'4955.4
2015-Jan-20 20:33N 46°12' W 123°23'203053.6
2015-Jan-20 20:32N 46°05' W 122°56'29424.8
2015-Jan-20 20:28N 45°37' W 122°48'4346.3
2015-Jan-20 19:33N 46°12' W 123°23'20357.5
2015-Jan-20 19:29N 46°05' W 122°56'29172.9
2015-Jan-20 19:19N 45°37' W 122°48'629.4
2015-Jan-20 19:07N 45°33' W 122°42'4984.1
2015-Jan-20 18:33N 46°12' W 123°23'203489.8
2015-Jan-20 18:32N 46°05' W 122°56'291563.6
2015-Jan-20 18:31N 45°37' W 122°48'614.7
2015-Jan-20 18:07N 45°33' W 122°42'4984.3
2015-Jan-20 17:33N 46°12' W 123°23'431815.7
2015-Jan-20 17:31N 45°37' W 122°48'29860.0
2015-Jan-20 17:29N 46°05' W 122°56'34513.2
2015-Jan-20 17:25N 45°33' W 122°42'3438.1
2015-Jan-20 16:32N 46°05' W 122°56'20491.9
2015-Jan-20 16:30N 46°12' W 123°23'43567.5
2015-Jan-20 16:25N 45°37' W 122°48'629.4
2015-Jan-20 16:13N 45°33' W 122°42'4972.0
2015-Jan-20 15:33N 46°12' W 123°23'431754.0
2015-Jan-20 15:31N 45°37' W 122°48'29341.8
2015-Jan-20 15:26N 46°05' W 122°56'34290.5
2015-Jan-20 15:19N 45°33' W 122°42'4962.6
2015-Jan-20 14:33N 46°12' W 123°23'20359.2
2015-Jan-20 14:29N 46°05' W 122°56'291720.0
2015-Jan-20 14:28N 45°37' W 122°48'4346.3
2015-Jan-20 13:33N 46°12' W 123°23'202931.4
2015-Jan-20 13:32N 46°05' W 122°56'29430.0
2015-Jan-20 13:28N 45°37' W 122°48'623.5
2015-Jan-20 13:13N 45°33' W 122°42'3449.2
2015-Jan-20 12:32N 46°05' W 122°56'20469.8
2015-Jan-20 12:30N 46°12' W 123°23'431859.4
2015-Jan-20 12:28N 45°37' W 122°48'639.1
2015-Jan-20 12:19N 45°33' W 122°42'6 7.3
2015-Jan-20 11:31N 45°37' W 122°48'621090.7
2015-Jan-20 11:31N 45°33' W 122°42'491805.2
2015-Jan-20 11:30N 46°12' W 123°23'203053.6
2015-Jan-20 11:29N 46°05' W 122°56'2021.6
2015-Jan-20 10:33N 46°12' W 123°23'202818.7
2015-Jan-20 10:32N 46°05' W 122°56'342053.0
2015-Jan-20 10:31N 45°33' W 122°42'4949.8
2015-Jan-20 09:33N 46°12' W 123°23'20359.2
2015-Jan-20 09:29N 46°05' W 122°56'29248.1
2015-Jan-20 09:22N 45°37' W 122°48'6117.2
2015-Jan-20 09:19N 45°33' W 122°42'4958.8
2015-Jan-20 08:30N 46°12' W 123°23'20355.8
2015-Jan-20 08:26N 46°05' W 122°56'29435.5
2015-Jan-20 08:22N 45°37' W 122°48'639.1
2015-Jan-20 08:13N 45°33' W 122°42'4966.9
2015-Jan-20 07:30N 46°12' W 123°23'431882.1
2015-Jan-20 07:28N 45°37' W 122°48'29839.0
2015-Jan-20 07:26N 46°05' W 122°56'34106.4
2015-Jan-20 07:07N 45°33' W 122°42'4984.2
2015-Jan-20 06:33N 46°12' W 123°23'203489.8
2015-Jan-20 06:32N 46°05' W 122°56'29107.7
2015-Jan-20 06:16N 45°37' W 122°48'6115.9
2015-Jan-20 06:13N 45°33' W 122°42'4971.9
2015-Jan-20 05:33N 46°12' W 123°23'202818.7
2015-Jan-20 05:32N 46°05' W 122°56'29174.1
2015-Jan-20 05:22N 45°37' W 122°48'623.3
2015-Jan-20 05:07N 45°33' W 122°42'6 9.8
2015-Jan-20 04:31N 45°37' W 122°48'610552.9
2015-Jan-20 04:31N 45°33' W 122°42'49632.2
2015-Jan-20 04:27N 46°12' W 123°23'20129.7
2015-Jan-20 04:17N 46°05' W 122°56'2022.8
2015-Jan-20 03:24N 46°12' W 123°23'203489.8
2015-Jan-20 03:23N 46°05' W 122°56'291911.1
2015-Jan-20 03:22N 45°37' W 122°48'623.3
2015-Jan-20 03:07N 45°33' W 122°42'6 8.4
2015-Jan-20 02:25N 45°37' W 122°48'65276.5
2015-Jan-20 02:25N 45°33' W 122°42'34969.0
2015-Jan-20 02:23N 46°05' W 122°56'2024.2
2015-Jan-20 01:33N 46°12' W 123°23'49394.4
2015-Jan-20 01:25N 45°33' W 122°42'34399.8
2015-Jan-20 01:20N 46°05' W 122°56'292150.0
2015-Jan-20 01:19N 45°37' W 122°48'4355.0
2015-Jan-20 00:33N 46°12' W 123°23'492161.8
2015-Jan-20 00:31N 45°33' W 122°42'34402.4
2015-Jan-20 00:26N 46°05' W 122°56'29444.8
2015-Jan-20 00:22N 45°37' W 122°48'2934.3
2015-Jan-19 23:32N 46°05' W 122°56'20482.1
2015-Jan-19 23:30N 46°12' W 123°23'431978.6
2015-Jan-19 23:28N 45°37' W 122°48'623.3
2015-Jan-19 23:13N 45°33' W 122°42'4971.8
2015-Jan-19 22:33N 46°12' W 123°23'203186.3
2015-Jan-19 22:32N 46°05' W 122°56'29446.8
2015-Jan-19 22:28N 45°37' W 122°48'638.3
2015-Jan-19 22:19N 45°33' W 122°42'4962.6
2015-Jan-19 21:33N 46°12' W 123°23'43607.7
2015-Jan-19 21:28N 45°37' W 122°48'29211.1
2015-Jan-19 21:20N 46°05' W 122°56'2024.1
2015-Jan-19 20:30N 46°12' W 123°23'432058.0
2015-Jan-19 20:28N 45°37' W 122°48'29331.9
2015-Jan-19 20:23N 46°05' W 122°56'0 0.0
2015-Jan-19 19:32N 46°05' W 122°56'20460.9
2015-Jan-19 19:30N 46°12' W 123°23'43356.4
2015-Jan-19 19:22N 45°37' W 122°48'4351.7
2015-Jan-19 18:33N 46°12' W 123°23'20357.5
2015-Jan-19 18:29N 46°05' W 122°56'292106.1
2015-Jan-19 18:28N 45°37' W 122°48'2927.7
2015-Jan-19 17:26N 46°05' W 122°56'20466.8
2015-Jan-19 17:24N 46°12' W 123°23'432236.9
2015-Jan-19 17:22N 45°37' W 122°48'638.1
2015-Jan-19 17:13N 45°33' W 122°42'6 8.4
2015-Jan-19 16:31N 45°37' W 122°48'61917.3
2015-Jan-19 16:31N 45°33' W 122°42'342883.9
2015-Jan-19 16:30N 46°05' W 122°56'201357.1
2015-Jan-19 16:30N 46°12' W 123°23'0 0.0
2015-Jan-19 15:33N 46°12' W 123°23'492084.6
2015-Jan-19 15:31N 45°33' W 122°42'6124.2
2015-Jan-19 15:28N 45°37' W 122°48'29446.7
2015-Jan-19 15:24N 46°05' W 122°56'0 0.0
2015-Jan-19 14:33N 46°05' W 122°56'201285.7
2015-Jan-19 14:33N 46°12' W 123°23'43614.9
2015-Jan-19 14:28N 45°37' W 122°48'2931.3
2015-Jan-19 13:33N 46°05' W 122°56'201285.7
2015-Jan-19 13:33N 46°12' W 123°23'43617.3
2015-Jan-19 13:28N 45°37' W 122°48'638.2
2015-Jan-19 13:19N 45°33' W 122°42'4962.6
2015-Jan-19 12:33N 46°12' W 123°23'432173.7
2015-Jan-19 12:31N 45°37' W 122°48'29108.2
2015-Jan-19 12:15N 46°05' W 122°56'3445.5
2015-Jan-19 11:31N 45°33' W 122°42'343105.8
2015-Jan-19 11:30N 46°05' W 122°56'201285.8
2015-Jan-19 11:30N 46°12' W 123°23'432174.2
2015-Jan-19 11:28N 45°37' W 122°48'2931.3
2015-Jan-19 10:33N 46°05' W 122°56'20310.5
2015-Jan-19 10:30N 46°12' W 123°23'43195.9
2015-Jan-19 10:16N 45°37' W 122°48'0 0.0
2015-Jan-19 09:31N 45°37' W 122°48'291947.5
2015-Jan-19 09:30N 46°05' W 122°56'201263.5
2015-Jan-19 09:30N 46°12' W 123°23'2021.8
2015-Jan-19 08:34N 46°05' W 122°56'34859.0
2015-Jan-19 08:31N 45°33' W 122°42'491768.8
2015-Jan-19 08:30N 46°12' W 123°23'43361.5
2015-Jan-19 08:22N 45°37' W 122°48'2935.2
2015-Jan-19 07:33N 46°05' W 122°56'201357.1
2015-Jan-19 07:33N 46°12' W 123°23'43617.3
2015-Jan-19 07:28N 45°37' W 122°48'6108.2
2015-Jan-19 07:25N 45°33' W 122°42'0 0.0
2015-Jan-19 06:31N 45°33' W 122°42'4917510.8
2015-Jan-19 06:31N 46°12' W 123°23'202364.1
2015-Jan-19 06:31N 46°05' W 122°56'29832.2
2015-Jan-19 06:28N 45°37' W 122°48'4344.8
2015-Jan-19 05:31N 46°12' W 123°23'202527.1
2015-Jan-19 05:31N 46°05' W 122°56'29812.6
2015-Jan-19 05:28N 45°37' W 122°48'4344.9
2015-Jan-19 04:31N 46°12' W 123°23'202035.7
2015-Jan-19 04:30N 46°05' W 122°56'29845.9
2015-Jan-19 04:28N 45°37' W 122°48'623.0
2015-Jan-19 04:13N 45°33' W 122°42'3450.9
2015-Jan-19 03:33N 46°05' W 122°56'20498.5
2015-Jan-19 03:31N 46°12' W 123°23'49501.7
2015-Jan-19 03:25N 45°33' W 122°42'6129.4
2015-Jan-19 03:22N 45°37' W 122°48'6 6.8
2015-Jan-19 02:31N 45°33' W 122°42'342954.3
2015-Jan-19 02:30N 46°05' W 122°56'29852.9
2015-Jan-19 02:28N 45°37' W 122°48'436173.3
2015-Jan-19 02:28N 46°12' W 123°23'2022.4
2015-Jan-19 01:33N 46°05' W 122°56'20144.8
2015-Jan-19 01:25N 46°12' W 123°23'43995.7
2015-Jan-19 01:22N 45°37' W 122°48'623.0
2015-Jan-19 01:07N 45°33' W 122°42'6 9.9
2015-Jan-19 00:32N 45°37' W 122°48'291638.1
2015-Jan-19 00:30N 46°05' W 122°56'20222.8
2015-Jan-19 00:25N 46°12' W 123°23'0 0.0
2015-Jan-18 23:31N 46°12' W 123°23'202442.9
2015-Jan-18 23:31N 46°05' W 122°56'29213.2
2015-Jan-18 23:22N 45°37' W 122°48'623.0
2015-Jan-18 23:07N 45°33' W 122°42'6 9.9
2015-Jan-18 22:32N 45°37' W 122°48'434979.0
2015-Jan-18 22:31N 46°12' W 123°23'202290.2
2015-Jan-18 22:30N 46°05' W 122°56'34379.7
2015-Jan-18 22:25N 45°33' W 122°42'4953.9
2015-Jan-18 21:31N 46°12' W 123°23'20344.1
2015-Jan-18 21:27N 46°05' W 122°56'29215.5
2015-Jan-18 21:19N 45°37' W 122°48'0 0.0
2015-Jan-18 20:32N 45°37' W 122°48'291692.1
2015-Jan-18 20:30N 46°05' W 122°56'2084.7
2015-Jan-18 20:16N 46°12' W 123°23'2028.7
2015-Jan-18 19:33N 46°05' W 122°56'29348.7
2015-Jan-18 19:29N 45°37' W 122°48'435145.0
2015-Jan-18 19:28N 46°12' W 123°23'4345.5
2015-Jan-18 18:32N 45°37' W 122°48'291638.1
2015-Jan-18 18:30N 46°05' W 122°56'20145.7
2015-Jan-18 18:22N 46°12' W 123°23'2023.7
2015-Jan-18 17:30N 46°05' W 122°56'29889.6
2015-Jan-18 17:29N 45°37' W 122°48'435511.8
2015-Jan-18 17:28N 46°12' W 123°23'49139.6
2015-Jan-18 17:07N 45°33' W 122°42'3452.7
2015-Jan-18 16:29N 46°05' W 122°56'295733.2
2015-Jan-18 16:29N 45°37' W 122°48'434978.4
2015-Jan-18 16:28N 46°12' W 123°23'49195.9
2015-Jan-18 16:13N 45°33' W 122°42'4960.7
2015-Jan-18 15:25N 46°12' W 123°23'431035.8
2015-Jan-18 15:23N 45°37' W 122°48'29633.1
2015-Jan-18 15:20N 46°05' W 122°56'2935.6
2015-Jan-18 14:32N 45°37' W 122°48'434978.4
2015-Jan-18 14:31N 46°12' W 123°23'20568.1
2015-Jan-18 14:29N 46°05' W 122°56'34540.7
2015-Jan-18 14:25N 45°33' W 122°42'3437.9
2015-Jan-18 13:32N 46°05' W 122°56'342954.3
2015-Jan-18 13:31N 45°33' W 122°42'4929184.7
2015-Jan-18 13:31N 46°12' W 123°23'43472.0
2015-Jan-18 13:26N 45°37' W 122°48'2932.0
2015-Jan-18 12:32N 46°05' W 122°56'295159.9
2015-Jan-18 12:32N 45°37' W 122°48'628.3
2015-Jan-18 12:19N 45°33' W 122°42'49936.4
2015-Jan-18 12:16N 46°12' W 123°23'2027.6
2015-Jan-18 11:32N 46°05' W 122°56'296882.7
2015-Jan-18 11:32N 45°37' W 122°48'43392.7
2015-Jan-18 11:25N 46°12' W 123°23'2023.0
2015-Jan-18 10:32N 46°05' W 122°56'201409.3
2015-Jan-18 10:31N 46°12' W 123°23'431079.2
2015-Jan-18 10:29N 45°37' W 122°48'2930.3
2015-Jan-18 09:32N 46°05' W 122°56'201495.6
2015-Jan-18 09:31N 46°12' W 123°23'49496.1
2015-Jan-18 09:25N 45°33' W 122°42'6140.6
2015-Jan-18 09:23N 45°37' W 122°48'2933.9
2015-Jan-18 08:32N 46°05' W 122°56'29540.4
2015-Jan-18 08:29N 45°37' W 122°48'43714.7
2015-Jan-18 08:25N 46°12' W 123°23'49328.0
2015-Jan-18 08:16N 45°33' W 122°42'6 7.9
2015-Jan-18 07:32N 45°37' W 122°48'6101.0
2015-Jan-18 07:28N 45°33' W 122°42'4958369.3
2015-Jan-18 07:28N 46°12' W 123°23'20148.1
2015-Jan-18 07:20N 46°05' W 122°56'0 0.0
2015-Jan-18 06:32N 46°05' W 122°56'34555.6
2015-Jan-18 06:28N 45°33' W 122°42'4917510.8
2015-Jan-18 06:28N 46°12' W 123°23'431064.4
2015-Jan-18 06:26N 45°37' W 122°48'2932.0
2015-Jan-18 05:32N 46°05' W 122°56'297940.0
2015-Jan-18 05:32N 45°37' W 122°48'434171.6
2015-Jan-18 05:31N 46°12' W 123°23'49330.4
2015-Jan-18 05:22N 45°33' W 122°42'4957.1
2015-Jan-18 04:31N 46°12' W 123°23'201263.5
2015-Jan-18 04:30N 46°05' W 122°56'291214.3
2015-Jan-18 04:29N 45°37' W 122°48'614.3
2015-Jan-18 04:04N 45°33' W 122°42'3465.0
2015-Jan-18 03:33N 46°05' W 122°56'291274.3
2015-Jan-18 03:32N 45°37' W 122°48'43201.8
2015-Jan-18 03:19N 46°12' W 123°23'0 0.0
2015-Jan-18 02:25N 46°12' W 123°23'431086.8
2015-Jan-18 02:23N 45°37' W 122°48'29126.9
2015-Jan-18 02:09N 46°05' W 122°56'0 0.0
2015-Jan-18 01:33N 46°05' W 122°56'291258.5
2015-Jan-18 01:32N 45°37' W 122°48'43384.9
2015-Jan-18 01:25N 46°12' W 123°23'4348.2
2015-Jan-18 00:32N 45°37' W 122°48'433674.6
2015-Jan-18 00:31N 46°12' W 123°23'20317.3
2015-Jan-18 00:27N 46°05' W 122°56'2929.4
2015-Jan-17 23:29N 45°37' W 122°48'433858.3
2015-Jan-17 23:28N 46°12' W 123°23'201332.5
2015-Jan-17 23:27N 46°05' W 122°56'2931.1
2015-Jan-17 22:32N 45°37' W 122°48'43704.8
2015-Jan-17 22:28N 46°12' W 123°23'201263.5
2015-Jan-17 22:27N 46°05' W 122°56'2931.0
2015-Jan-17 21:32N 45°37' W 122°48'291042.6
2015-Jan-17 21:30N 46°05' W 122°56'20600.7
2015-Jan-17 21:28N 46°12' W 123°23'2022.2
2015-Jan-17 20:33N 46°05' W 122°56'291228.8
2015-Jan-17 20:32N 45°37' W 122°48'43689.1
2015-Jan-17 20:28N 46°12' W 123°23'49497.5
2015-Jan-17 20:22N 45°33' W 122°42'0 0.0
2015-Jan-17 19:33N 45°33' W 122°42'49568.5
2015-Jan-17 19:28N 46°12' W 123°23'43488.4
2015-Jan-17 19:23N 45°37' W 122°48'291063.9
2015-Jan-17 19:21N 46°05' W 122°56'0 0.0
2015-Jan-17 18:33N 46°05' W 122°56'291243.4
2015-Jan-17 18:32N 45°37' W 122°48'43381.1
2015-Jan-17 18:25N 46°12' W 123°23'49956.9
2015-Jan-17 18:22N 45°33' W 122°42'3439.0
2015-Jan-17 17:30N 46°05' W 122°56'34910.7
2015-Jan-17 17:28N 45°33' W 122°42'49326.7
2015-Jan-17 17:19N 46°12' W 123°23'43312.4
2015-Jan-17 17:11N 45°37' W 122°48'2945.7
2015-Jan-17 16:33N 46°05' W 122°56'20238.7
2015-Jan-17 16:28N 46°12' W 123°23'43490.0
2015-Jan-17 16:23N 45°37' W 122°48'6421.8
2015-Jan-17 16:22N 45°33' W 122°42'3441.4
2015-Jan-17 15:33N 46°05' W 122°56'20239.5
2015-Jan-17 15:28N 46°12' W 123°23'4943777.0
2015-Jan-17 15:28N 45°33' W 122°42'668.0
2015-Jan-17 15:23N 45°37' W 122°48'2934.7
2015-Jan-17 14:33N 46°05' W 122°56'34387.0
2015-Jan-17 14:28N 45°33' W 122°42'643.2
2015-Jan-17 14:20N 45°37' W 122°48'43382.0
2015-Jan-17 14:13N 46°12' W 123°23'2030.6
2015-Jan-17 13:33N 46°05' W 122°56'  
Track history (hours):
 
Tides and Currents Weather Stations Pressure Air Temp Water Temp Dewpoint Dewpoint Depression Visibility Wind Speed Wind Dir Waves Ship Positions

Zarling

Owner: Clean Rivers Co-op, Portland, OR. More information available from US FCC via Universal Licensing System.

Last reported at 2015-Jan-27 13:33 UTC. Time now 2015-Jan-27 14:24 UTC.
Position N 45°37' W 122°48'.

Length 12 m.

Type: Pollution control. MMSI: 3699126.

Date/timePositionNaut miles runAvg speedWind from/ knotsBaromVisibWave heightAir tempDewpointWater temp
2015-Jan-27 13:33N 45°37' W 122°48'293225.0
2015-Jan-27 13:32N 46°05' W 122°56'201409.3
2015-Jan-27 13:31N 46°12' W 123°23'4343.9
2015-Jan-27 12:33N 45°37' W 122°48'431794.8
2015-Jan-27 12:31N 46°12' W 123°23'20110.2
2015-Jan-27 12:20N 46°05' W 122°56'2936.2
2015-Jan-27 11:33N 45°37' W 122°48'431882.1
2015-Jan-27 11:31N 46°12' W 123°23'20563.7
2015-Jan-27 11:29N 46°05' W 122°56'2930.5
2015-Jan-27 10:33N 45°37' W 122°48'292867.2
2015-Jan-27 10:32N 46°05' W 122°56'20123.8
2015-Jan-27 10:22N 46°12' W 123°23'4351.9
2015-Jan-27 09:33N 45°37' W 122°48'29261.3
2015-Jan-27 09:26N 46°05' W 122°56'20318.6
2015-Jan-27 09:22N 46°12' W 123°23'2024.3
2015-Jan-27 08:32N 46°05' W 122°56'20178.7
2015-Jan-27 08:25N 46°12' W 123°23'43245.0
2015-Jan-27 08:15N 45°37' W 122°48'2940.4
2015-Jan-27 07:32N 46°05' W 122°56'20124.6
2015-Jan-27 07:22N 46°12' W 123°23'43243.8
2015-Jan-27 07:12N 45°37' W 122°48'2937.7
2015-Jan-27 06:26N 46°05' W 122°56'201437.0
2015-Jan-27 06:25N 46°12' W 123°23'43569.5
2015-Jan-27 06:21N 45°37' W 122°48'0 0.0
2015-Jan-27 05:33N 45°37' W 122°48'292580.0
2015-Jan-27 05:32N 46°05' W 122°56'20314.5
2015-Jan-27 05:28N 46°12' W 123°23'4346.4
2015-Jan-27 04:33N 45°37' W 122°48'43571.6
2015-Jan-27 04:28N 46°12' W 123°23'20572.5
2015-Jan-27 04:26N 46°05' W 122°56'2932.2
2015-Jan-27 03:33N 45°37' W 122°48'431659.5
2015-Jan-27 03:31N 46°12' W 123°23'20240.3
2015-Jan-27 03:26N 46°05' W 122°56'2932.2
2015-Jan-27 02:33N 45°37' W 122°48'292580.5
2015-Jan-27 02:32N 46°05' W 122°56'201437.0
2015-Jan-27 02:31N 46°12' W 123°23'0 0.0
2015-Jan-27 01:28N 46°12' W 123°23'431773.9
2015-Jan-27 01:27N 45°37' W 122°48'29258.6
2015-Jan-27 01:20N 46°05' W 122°56'2936.4
2015-Jan-27 00:33N 45°37' W 122°48'292293.3
2015-Jan-27 00:32N 46°05' W 122°56'20320.0
2015-Jan-27 00:28N 46°12' W 123°23'4346.4
2015-Jan-26 23:33N 45°37' W 122°48'292457.1
2015-Jan-26 23:32N 46°05' W 122°56'2055.8
2015-Jan-26 23:10N 46°12' W 123°23'4368.7
2015-Jan-26 22:33N 45°37' W 122°48'292345.4
2015-Jan-26 22:32N 46°05' W 122°56'20320.0
2015-Jan-26 22:28N 46°12' W 123°23'4346.4
2015-Jan-26 21:33N 45°37' W 122°48'29462.8
2015-Jan-26 21:29N 46°05' W 122°56'0 0.0
2015-Jan-26 20:32N 46°05' W 122°56'20314.5
2015-Jan-26 20:28N 46°12' W 123°23'43132.4
2015-Jan-26 20:09N 45°37' W 122°48'2946.9
2015-Jan-26 19:32N 46°05' W 122°56'29323.5
2015-Jan-26 19:27N 45°37' W 122°48'43561.2
2015-Jan-26 19:22N 46°12' W 123°23'0 0.0
2015-Jan-26 18:31N 46°12' W 123°23'431774.1
2015-Jan-26 18:30N 45°37' W 122°48'29462.8
2015-Jan-26 18:26N 46°05' W 122°56'34202.9
2015-Jan-26 18:16N 45°33' W 122°42'3445.8
2015-Jan-26 17:32N 46°05' W 122°56'201409.3
2015-Jan-26 17:31N 46°12' W 123°23'49946.5
2015-Jan-26 17:28N 45°33' W 122°42'6277.7
2015-Jan-26 17:27N 45°37' W 122°48'4346.3
2015-Jan-26 16:31N 46°12' W 123°23'20559.4
2015-Jan-26 16:29N 46°05' W 122°56'29753.3
2015-Jan-26 16:27N 45°37' W 122°48'0 0.0
2015-Jan-26 15:33N 45°37' W 122°48'43825.4
2015-Jan-26 15:30N 46°12' W 123°23'202155.5
2015-Jan-26 15:29N 46°05' W 122°56'2930.5
2015-Jan-26 14:33N 45°37' W 122°48'4325721.9
2015-Jan-26 14:33N 46°12' W 123°23'20185.1
2015-Jan-26 14:26N 46°05' W 122°56'2021.6
2015-Jan-26 13:30N 46°12' W 123°23'43902.5
2015-Jan-26 13:27N 45°37' W 122°48'292293.3
2015-Jan-26 13:26N 46°05' W 122°56'34106.5
2015-Jan-26 13:07N 45°33' W 122°42'610.3
2015-Jan-26 12:33N 45°37' W 122°48'4315433.2
2015-Jan-26 12:33N 46°12' W 123°23'202093.9
2015-Jan-26 12:32N 46°05' W 122°56'342202.3
2015-Jan-26 12:31N 45°33' W 122°42'6 6.0
2015-Jan-26 11:33N 45°37' W 122°48'43211.7
2015-Jan-26 11:21N 46°12' W 123°23'202093.9
2015-Jan-26 11:20N 46°05' W 122°56'0 0.0
2015-Jan-26 10:29N 46°05' W 122°56'20226.9
2015-Jan-26 10:24N 46°12' W 123°23'43897.4
2015-Jan-26 10:21N 45°37' W 122°48'2935.2
2015-Jan-26 09:32N 46°05' W 122°56'20227.6
2015-Jan-26 09:27N 46°12' W 123°23'43144.3
2015-Jan-26 09:09N 45°37' W 122°48'4371.1
2015-Jan-26 08:33N 46°12' W 123°23'201928.4
2015-Jan-26 08:32N 46°05' W 122°56'29794.0
2015-Jan-26 08:30N 45°37' W 122°48'0 0.0
2015-Jan-26 07:33N 45°37' W 122°48'4317149.9
2015-Jan-26 07:33N 46°12' W 123°23'2044.2
2015-Jan-26 07:05N 46°05' W 122°56'2034.6
2015-Jan-26 06:30N 46°12' W 123°23'43902.5
2015-Jan-26 06:27N 45°37' W 122°48'292150.0
2015-Jan-26 06:26N 46°05' W 122°56'0 0.0
2015-Jan-26 05:23N 46°05' W 122°56'29787.9
2015-Jan-26 05:21N 45°37' W 122°48'43821.0
2015-Jan-26 05:18N 46°12' W 123°23'4357.3
2015-Jan-26 04:33N 45°37' W 122°48'29134.2
2015-Jan-26 04:20N 46°05' W 122°56'20531.1
2015-Jan-26 04:18N 46°12' W 123°23'0 0.0
2015-Jan-26 03:33N 46°12' W 123°23'43442.2
2015-Jan-26 03:27N 45°37' W 122°48'29448.7
2015-Jan-26 03:23N 46°05' W 122°56'2932.4
2015-Jan-26 02:30N 45°37' W 122°48'4314030.1
2015-Jan-26 02:30N 46°12' W 123°23'20375.8
2015-Jan-26 02:27N 46°05' W 122°56'2932.1
2015-Jan-26 01:33N 45°37' W 122°48'292106.1
2015-Jan-26 01:32N 46°05' W 122°56'20512.5
2015-Jan-26 01:30N 46°12' W 123°23'2021.2
2015-Jan-26 00:32N 46°05' W 122°56'29794.0
2015-Jan-26 00:30N 45°37' W 122°48'4310290.0
2015-Jan-26 00:30N 46°12' W 123°23'4343.1
2015-Jan-25 23:30N 45°37' W 122°48'4310288.8
2015-Jan-25 23:30N 46°12' W 123°23'20184.1
2015-Jan-25 23:23N 46°05' W 122°56'2934.3
2015-Jan-25 22:33N 45°37' W 122°48'291947.1
2015-Jan-25 22:32N 46°05' W 122°56'2060.1
2015-Jan-25 22:12N 46°12' W 123°23'2030.8
2015-Jan-25 21:32N 46°05' W 122°56'0 0.0
2015-Jan-25 20:32N 46°05' W 122°56'20512.5
2015-Jan-25 20:30N 46°12' W 123°23'43448.7
2015-Jan-25 20:24N 45°37' W 122°48'0 0.0
2015-Jan-25 19:33N 45°37' W 122°48'43541.6
2015-Jan-25 19:28N 46°12' W 123°23'20568.1
2015-Jan-25 19:26N 46°05' W 122°56'0 0.0
2015-Jan-25 18:32N 46°05' W 122°56'20314.5
2015-Jan-25 18:28N 46°12' W 123°23'43357.2
2015-Jan-25 18:21N 45°37' W 122°48'0 0.0
2015-Jan-25 17:33N 45°37' W 122°48'291876.3
2015-Jan-25 17:32N 46°05' W 122°56'20314.5
2015-Jan-25 17:28N 46°12' W 123°23'2021.8
2015-Jan-25 16:32N 46°05' W 122°56'20123.4
2015-Jan-25 16:22N 46°12' W 123°23'43358.1
2015-Jan-25 16:15N 45°37' W 122°48'2940.1
2015-Jan-25 15:32N 46°05' W 122°56'20322.8
2015-Jan-25 15:28N 46°12' W 123°23'43253.0
2015-Jan-25 15:18N 45°37' W 122°48'0 0.0
2015-Jan-25 14:33N 45°37' W 122°48'431442.4
2015-Jan-25 14:31N 46°12' W 123°23'2086.2
2015-Jan-25 14:17N 46°05' W 122°56'2026.6
2015-Jan-25 13:31N 46°12' W 123°23'432236.7
2015-Jan-25 13:30N 45°37' W 122°48'2990.7
2015-Jan-25 13:11N 46°05' W 122°56'2945.3
2015-Jan-25 12:33N 45°37' W 122°48'291720.3
2015-Jan-25 12:32N 46°05' W 122°56'201382.7
2015-Jan-25 12:31N 46°12' W 123°23'0 0.0
2015-Jan-25 11:31N 46°12' W 123°23'432173.9
2015-Jan-25 11:30N 45°37' W 122°48'291779.7
2015-Jan-25 11:29N 46°05' W 122°56'0 0.0
2015-Jan-25 10:29N 46°05' W 122°56'20123.6
2015-Jan-25 10:19N 46°12' W 123°23'43619.9
2015-Jan-25 10:15N 45°37' W 122°48'0 0.0
2015-Jan-25 09:33N 45°37' W 122°48'431390.4
2015-Jan-25 09:31N 46°12' W 123°23'20563.7
2015-Jan-25 09:29N 46°05' W 122°56'2930.7
2015-Jan-25 08:33N 45°37' W 122°48'291720.3
2015-Jan-25 08:32N 46°05' W 122°56'2095.8
2015-Jan-25 08:19N 46°12' W 123°23'49191.8
2015-Jan-25 08:04N 45°33' W 122°42'3464.1
2015-Jan-25 07:33N 46°05' W 122°56'20872.5
2015-Jan-25 07:31N 46°12' W 123°23'43630.1
2015-Jan-25 07:27N 45°37' W 122°48'670.3
2015-Jan-25 07:22N 45°33' W 122°42'3440.7
2015-Jan-25 06:33N 46°05' W 122°56'20939.6
2015-Jan-25 06:31N 46°12' W 123°23'432338.4
2015-Jan-25 06:30N 45°37' W 122°48'2928.2
2015-Jan-25 05:29N 46°05' W 122°56'201437.0
2015-Jan-25 05:28N 46°12' W 123°23'432269.6
2015-Jan-25 05:27N 45°37' W 122°48'670.6
2015-Jan-25 05:22N 45°33' W 122°42'3440.4
2015-Jan-25 04:32N 46°05' W 122°56'20180.5
2015-Jan-25 04:25N 46°12' W 123°23'43612.4
2015-Jan-25 04:21N 45°37' W 122°48'625.1
2015-Jan-25 04:07N 45°33' W 122°42'610.4
2015-Jan-25 03:33N 45°37' W 122°48'43326.3
2015-Jan-25 03:25N 46°12' W 123°23'49972.8
2015-Jan-25 03:22N 45°33' W 122°42'34142.5
2015-Jan-25 03:08N 46°05' W 122°56'2945.3
2015-Jan-25 02:30N 45°37' W 122°48'431378.0
2015-Jan-25 02:28N 46°12' W 123°23'20149.9
2015-Jan-25 02:20N 46°05' W 122°56'2932.5
2015-Jan-25 01:27N 45°37' W 122°48'291638.4
2015-Jan-25 01:26N 46°05' W 122°56'2077.1
2015-Jan-25 01:10N 46°12' W 123°23'2032.0
2015-Jan-25 00:32N 46°05' W 122°56'29346.3
2015-Jan-25 00:27N 45°37' W 122°48'43524.9
2015-Jan-25 00:22N 46°12' W 123°23'4352.5
2015-Jan-24 23:33N 45°37' W 122°48'43517.9
2015-Jan-24 23:28N 46°12' W 123°23'2071.2
2015-Jan-24 23:11N 46°05' W 122°56'2942.1
2015-Jan-24 22:30N 45°37' W 122°48'431330.4
2015-Jan-24 22:28N 46°12' W 123°23'20568.1
2015-Jan-24 22:26N 46°05' W 122°56'2929.2
2015-Jan-24 21:27N 45°37' W 122°48'29131.2
2015-Jan-24 21:14N 46°05' W 122°56'2942.1
2015-Jan-24 20:33N 45°37' W 122°48'291563.9
2015-Jan-24 20:32N 46°05' W 122°56'201382.7
2015-Jan-24 20:31N 46°12' W 123°23'4344.3
2015-Jan-24 19:33N 45°37' W 122°48'29241.7
2015-Jan-24 19:26N 46°05' W 122°56'2095.2
2015-Jan-24 19:13N 46°12' W 123°23'49479.7
2015-Jan-24 19:07N 45°33' W 122°42'6 7.7
2015-Jan-24 18:21N 45°37' W 122°48'291495.6
2015-Jan-24 18:20N 46°05' W 122°56'34126.2
2015-Jan-24 18:04N 45°33' W 122°42'611.4
2015-Jan-24 17:33N 45°37' W 122°48'291563.6
2015-Jan-24 17:32N 46°05' W 122°56'34202.2
2015-Jan-24 17:22N 45°33' W 122°42'49162.7
2015-Jan-24 17:04N 46°12' W 123°23'2038.1
2015-Jan-24 16:32N 46°05' W 122°56'34506.8
2015-Jan-24 16:28N 45°33' W 122°42'6405.6
2015-Jan-24 16:27N 45°37' W 122°48'43151.0
2015-Jan-24 16:10N 46°12' W 123°23'2032.1
2015-Jan-24 15:32N 46°05' W 122°56'342018.8
2015-Jan-24 15:31N 45°33' W 122°42'491012.2
2015-Jan-24 15:28N 46°12' W 123°23'43371.0
2015-Jan-24 15:21N 45°37' W 122°48'0 0.0
2015-Jan-24 14:33N 45°37' W 122°48'291517.6
2015-Jan-24 14:32N 46°05' W 122°56'2076.8
2015-Jan-24 14:16N 46°12' W 123°23'49946.5
2015-Jan-24 14:13N 45°33' W 122°42'6 8.8
2015-Jan-24 13:33N 45°37' W 122°48'291540.3
2015-Jan-24 13:32N 46°05' W 122°56'20123.8
2015-Jan-24 13:22N 46°12' W 123°23'2024.3
2015-Jan-24 12:32N 46°05' W 122°56'29355.9
2015-Jan-24 12:27N 45°37' W 122°48'43848.0
2015-Jan-24 12:24N 46°12' W 123°23'49262.9
2015-Jan-24 12:13N 45°33' W 122°42'6 8.8
2015-Jan-24 11:33N 45°37' W 122°48'43862.2
2015-Jan-24 11:30N 46°12' W 123°23'201077.7
2015-Jan-24 11:29N 46°05' W 122°56'2930.8
2015-Jan-24 10:33N 45°37' W 122°48'29409.5
2015-Jan-24 10:29N 46°05' W 122°56'342053.0
2015-Jan-24 10:28N 45°33' W 122°42'49764.7
2015-Jan-24 10:24N 46°12' W 123°23'4347.7
2015-Jan-24 09:30N 45°37' W 122°48'6162.2
2015-Jan-24 09:28N 45°33' W 122°42'34251.8
2015-Jan-24 09:20N 46°05' W 122°56'2936.8
2015-Jan-24 08:33N 45°37' W 122°48'4325724.9
2015-Jan-24 08:33N 46°12' W 123°23'49574.1
2015-Jan-24 08:28N 45°33' W 122°42'341017.9
2015-Jan-24 08:26N 46°05' W 122°56'2932.6
2015-Jan-24 07:33N 45°37' W 122°48'4325724.9
2015-Jan-24 07:33N 46°12' W 123°23'201093.8
2015-Jan-24 07:32N 46°05' W 122°56'34508.9
2015-Jan-24 07:28N 45°33' W 122°42'6 6.4
2015-Jan-24 06:33N 45°37' W 122°48'666.4
2015-Jan-24 06:28N 45°33' W 122°42'493367.5
2015-Jan-24 06:27N 46°12' W 123°23'201077.7
2015-Jan-24 06:26N 46°05' W 122°56'2932.6
2015-Jan-24 05:33N 45°37' W 122°48'6157.5
2015-Jan-24 05:31N 45°33' W 122°42'34992.8
2015-Jan-24 05:29N 46°05' W 122°56'20666.2
2015-Jan-24 05:27N 46°12' W 123°23'4347.7
2015-Jan-24 04:33N 45°37' W 122°48'291413.7
2015-Jan-24 04:32N 46°05' W 122°56'20660.2
2015-Jan-24 04:30N 46°12' W 123°23'491368.0
2015-Jan-24 04:28N 45°33' W 122°42'6 6.4
2015-Jan-24 03:33N 45°37' W 122°48'291323.1
2015-Jan-24 03:32N 46°05' W 122°56'20254.5
2015-Jan-24 03:27N 46°12' W 123°23'49563.0
2015-Jan-24 03:22N 45°33' W 122°42'6 7.2
2015-Jan-24 02:33N 45°37' W 122°48'29167.8
2015-Jan-24 02:23N 46°05' W 122°56'342088.4
2015-Jan-24 02:22N 45°33' W 122°42'49183.2
2015-Jan-24 02:06N 46°12' W 123°23'4366.2
2015-Jan-24 01:27N 45°37' W 122°48'6158.6
2015-Jan-24 01:25N 45°33' W 122°42'493242.7
2015-Jan-24 01:24N 46°12' W 123°23'2075.9
2015-Jan-24 01:08N 46°05' W 122°56'3454.5
2015-Jan-24 00:31N 45°33' W 122°42'6490.8
2015-Jan-24 00:30N 45°37' W 122°48'43803.8
2015-Jan-24 00:27N 46°12' W 123°23'201110.4
2015-Jan-24 00:26N 46°05' W 122°56'2929.3
2015-Jan-23 23:27N 45°37' W 122°48'29167.3
2015-Jan-23 23:17N 46°05' W 122°56'34506.8
2015-Jan-23 23:13N 45°33' W 122°42'493183.8
2015-Jan-23 23:12N 46°12' W 123°23'4971.0
2015-Jan-23 22:31N 45°33' W 122°42'493573.6
2015-Jan-23 22:30N 46°12' W 123°23'43887.0
2015-Jan-23 22:27N 45°37' W 122°48'2977.2
2015-Jan-23 22:05N 46°05' W 122°56'0 0.0
2015-Jan-23 21:26N 46°05' W 122°56'291032.2
2015-Jan-23 21:24N 45°37' W 122°48'6151.6
2015-Jan-23 21:22N 45°33' W 122°42'0 0.0
2015-Jan-23 20:25N 45°33' W 122°42'6448.7
2015-Jan-23 20:24N 45°37' W 122°48'43281.1
2015-Jan-23 20:15N 46°12' W 123°23'201077.7
2015-Jan-23 20:14N 46°05' W 122°56'3447.0
2015-Jan-23 19:31N 45°33' W 122°42'34251.3
2015-Jan-23 19:23N 46°05' W 122°56'291042.6
2015-Jan-23 19:21N 45°37' W 122°48'43795.6
2015-Jan-23 19:18N 46°12' W 123°23'4357.4
2015-Jan-23 18:33N 45°37' W 122°48'4314030.1
2015-Jan-23 18:33N 46°12' W 123°23'201062.1
2015-Jan-23 18:32N 46°05' W 122°56'34506.8
2015-Jan-23 18:28N 45°33' W 122°42'6 6.4
2015-Jan-23 17:33N 45°37' W 122°48'29234.5
2015-Jan-23 17:26N 46°05' W 122°56'34201.9
2015-Jan-23 17:16N 45°33' W 122°42'493433.5
2015-Jan-23 17:15N 46°12' W 123°23'0 0.0
2015-Jan-23 16:33N 46°12' W 123°23'201110.4
2015-Jan-23 16:32N 46°05' W 122°56'291022.0
2015-Jan-23 16:30N 45°37' W 122°48'631.1
2015-Jan-23 16:19N 45°33' W 122°42'6 7.7
2015-Jan-23 15:33N 45°37' W 122°48'4311025.0
2015-Jan-23 15:33N 46°12' W 123°23'49360.3
2015-Jan-23 15:25N 45°33' W 122°42'34183.8
2015-Jan-23 15:14N 46°05' W 122°56'2942.3
2015-Jan-23 14:33N 45°37' W 122°48'291274.1
2015-Jan-23 14:32N 46°05' W 122°56'20637.3
2015-Jan-23 14:30N 46°12' W 123°23'49574.1
2015-Jan-23 14:25N 45°33' W 122°42'6 6.8
2015-Jan-23 13:34N 45°37' W 122°48'291243.4
2015-Jan-23 13:32N 46°05' W 122°56'20648.5
2015-Jan-23 13:30N 46°12' W 123°23'49126.3
2015-Jan-23 13:07N 45°33' W 122°42'610.5
2015-Jan-23 12:33N 45°37' W 122°48'43791.4
2015-Jan-23 12:30N 46°12' W 123°23'49262.9
2015-Jan-23 12:19N 45°33' W 122°42'34992.8
2015-Jan-23 12:17N 46°05' W 122°56'2939.5
2015-Jan-23 11:34N 45°37' W 122°48'4311026.2
2015-Jan-23 11:33N 46°12' W 123°23'20170.4
2015-Jan-23 11:26N 46°05' W 122°56'342053.0
2015-Jan-23 11:25N 45°33' W 122°42'4956.3
2015-Jan-23 10:33N 46°12' W 123°23'201062.1
2015-Jan-23 10:32N 46°05' W 122°56'34155.9
2015-Jan-23 10:19N 45°33' W 122°42'653.0
2015-Jan-23 10:13N 45°37' W 122°48'4365.5
2015-Jan-23 09:33N 46°12' W 123°23'43935.6
2015-Jan-23 09:31N 45°37' W 122°48'291214.3
2015-Jan-23 09:29N 46°05' W 122°56'342088.4
2015-Jan-23 09:28N 45°33' W 122°42'4953.2
2015-Jan-23 08:33N 46°12' W 123°23'201046.9
2015-Jan-23 08:32N 46°05' W 122°56'34515.4
2015-Jan-23 08:28N 45°33' W 122°42'696.7
2015-Jan-23 08:25N 45°37' W 122°48'4350.2
2015-Jan-23 07:33N 46°12' W 123°23'20294.3
2015-Jan-23 07:29N 46°05' W 122°56'342088.4
2015-Jan-23 07:28N 45°33' W 122°42'6602.6
2015-Jan-23 07:28N 45°37' W 122°48'2931.1
2015-Jan-23 06:32N 46°05' W 122°56'341985.7
2015-Jan-23 06:31N 45°33' W 122°42'6586.3
2015-Jan-23 06:31N 45°37' W 122°48'43408.3
2015-Jan-23 06:24N 46°12' W 123°23'2023.5
2015-Jan-23 05:32N 46°05' W 122°56'201559.3
2015-Jan-23 05:31N 46°12' W 123°23'49916.8
2015-Jan-23 05:28N 45°33' W 122°42'653.2
2015-Jan-23 05:22N 45°37' W 122°48'4351.2
2015-Jan-23 04:31N 46°12' W 123°23'43689.0
2015-Jan-23 04:28N 45°37' W 122°48'291228.6
2015-Jan-23 04:26N 46°05' W 122°56'341953.6
2015-Jan-23 04:25N 45°33' W 122°42'0 0.0
2015-Jan-23 03:28N 45°33' W 122°42'34946.3
2015-Jan-23 03:26N 46°05' W 122°56'20317.3
2015-Jan-23 03:22N 46°12' W 123°23'43386.8
2015-Jan-23 03:16N 45°37' W 122°48'4358.0
2015-Jan-23 02:31N 46°12' W 123°23'4958369.3
2015-Jan-23 02:31N 45°33' W 122°42'699.5
2015-Jan-23 02:28N 45°37' W 122°48'29126.6
2015-Jan-23 02:14N 46°05' W 122°56'0 0.0
2015-Jan-23 01:32N 46°05' W 122°56'201077.7
2015-Jan-23 01:31N 46°12' W 123°23'4925015.4
2015-Jan-23 01:31N 45°33' W 122°42'612.8
2015-Jan-23 01:04N 45°37' W 122°48'4379.6
2015-Jan-23 00:31N 46°12' W 123°23'434676.7
2015-Jan-23 00:31N 45°37' W 122°48'291053.0
2015-Jan-23 00:29N 46°05' W 122°56'342088.4
2015-Jan-23 00:28N 45°33' W 122°42'4951.3
2015-Jan-22 23:31N 46°12' W 123°23'434061.4
2015-Jan-22 23:31N 45°37' W 122°48'29383.6
2015-Jan-22 23:26N 46°05' W 122°56'342088.4
2015-Jan-22 23:25N 45°33' W 122°42'3438.1
2015-Jan-22 22:32N 46°05' W 122°56'201526.8
2015-Jan-22 22:31N 46°12' W 123°23'43698.3
2015-Jan-22 22:28N 45°37' W 122°48'641.3
2015-Jan-22 22:19N 45°33' W 122°42'4961.1
2015-Jan-22 21:31N 46°12' W 123°23'43698.4
2015-Jan-22 21:28N 45°37' W 122°48'29163.6
2015-Jan-22 21:17N 46°05' W 122°56'342018.8
2015-Jan-22 21:16N 45°33' W 122°42'3445.9
2015-Jan-22 20:32N 46°05' W 122°56'20177.9
2015-Jan-22 20:25N 46°12' W 123°23'43724.6
2015-Jan-22 20:22N 45°37' W 122°48'6137.0
2015-Jan-22 20:19N 45°33' W 122°42'3442.9
2015-Jan-22 19:32N 46°05' W 122°56'342202.3
2015-Jan-22 19:31N 45°33' W 122°42'49329.2
2015-Jan-22 19:22N 46°12' W 123°23'433764.6
2015-Jan-22 19:22N 45°37' W 122°48'2934.7
2015-Jan-22 18:32N 46°05' W 122°56'20318.6
2015-Jan-22 18:28N 46°12' W 123°23'43387.8
2015-Jan-22 18:22N 45°37' W 122°48'664.3
2015-Jan-22 18:16N 45°33' W 122°42'4965.0
2015-Jan-22 17:31N 46°12' W 123°23'20563.7
2015-Jan-22 17:29N 46°05' W 122°56'342125.0
2015-Jan-22 17:28N 45°33' W 122°42'654.3
2015-Jan-22 17:22N 45°37' W 122°48'2934.7
2015-Jan-22 16:32N 46°05' W 122°56'20314.5
2015-Jan-22 16:28N 46°12' W 123°23'434539.2
2015-Jan-22 16:28N 45°37' W 122°48'663.8
2015-Jan-22 16:22N 45°33' W 122°42'3440.3
2015-Jan-22 15:32N 46°05' W 122°56'201409.3
2015-Jan-22 15:31N 46°12' W 123°23'434539.7
2015-Jan-22 15:31N 45°37' W 122°48'6138.8
2015-Jan-22 15:28N 45°33' W 122°42'3436.0
2015-Jan-22 14:32N 46°05' W 122°56'201409.3
2015-Jan-22 14:31N 46°12' W 123°23'43724.6
2015-Jan-22 14:28N 45°37' W 122°48'630.4
2015-Jan-22 14:16N 45°33' W 122°42'3445.9
2015-Jan-22 13:32N 46°05' W 122°56'201382.7
2015-Jan-22 13:31N 46°12' W 123°23'49946.4
2015-Jan-22 13:28N 45°33' W 122°42'6727.3
2015-Jan-22 13:28N 45°37' W 122°48'2931.0
2015-Jan-22 12:32N 46°05' W 122°56'201357.1
2015-Jan-22 12:31N 46°12' W 123°23'49936.4
2015-Jan-22 12:28N 45°33' W 122°42'6879.4
2015-Jan-22 12:28N 45°37' W 122°48'2930.9
2015-Jan-22 11:32N 46°05' W 122°56'201495.6
2015-Jan-22 11:31N 46°12' W 123°23'434822.9
2015-Jan-22 11:31N 45°37' W 122°48'6134.4
2015-Jan-22 11:28N 45°33' W 122°42'3436.0
2015-Jan-22 10:32N 46°05' W 122°56'201409.3
2015-Jan-22 10:31N 46°12' W 123°23'49931.4
2015-Jan-22 10:28N 45°33' W 122°42'6878.8
2015-Jan-22 10:28N 45°37' W 122°48'4345.5
2015-Jan-22 09:31N 46°12' W 123°23'4929184.7
2015-Jan-22 09:31N 45°33' W 122°42'6844.2
2015-Jan-22 09:31N 45°37' W 122°48'291075.0
2015-Jan-22 09:29N 46°05' W 122°56'0 0.0
2015-Jan-22 08:32N 46°05' W 122°56'201437.0
2015-Jan-22 08:31N 46°12' W 123°23'49931.4
2015-Jan-22 08:28N 45°33' W 122°42'622.9
2015-Jan-22 08:13N 45°37' W 122°48'2939.6
2015-Jan-22 07:29N 46°05' W 122°56'201163.3
2015-Jan-22 07:28N 46°12' W 123°23'435321.8
2015-Jan-22 07:28N 45°37' W 122°48'630.3
2015-Jan-22 07:16N 45°33' W 122°42'4965.0
2015-Jan-22 06:31N 46°12' W 123°23'435321.8
2015-Jan-22 06:31N 45°37' W 122°48'29103.2
2015-Jan-22 06:14N 46°05' W 122°56'34513.2
2015-Jan-22 06:10N 45°33' W 122°42'0 0.0
2015-Jan-22 05:31N 45°33' W 122°42'34931.6
2015-Jan-22 05:29N 46°05' W 122°56'201559.4
2015-Jan-22 05:28N 46°12' W 123°23'43394.8
2015-Jan-22 05:22N 45°37' W 122°48'2934.7
2015-Jan-22 04:32N 46°05' W 122°56'201332.5
2015-Jan-22 04:31N 46°12' W 123°23'43271.2
2015-Jan-22 04:22N 45°37' W 122°48'6132.7
2015-Jan-22 04:19N 45°33' W 122°42'4961.0
2015-Jan-22 03:31N 46°12' W 123°23'4914592.3
2015-Jan-22 03:31N 45°33' W 122°42'34403.8
2015-Jan-22 03:26N 46°05' W 122°56'29395.5
2015-Jan-22 03:22N 45°37' W 122°48'4351.0
2015-Jan-22 02:31N 46°12' W 123°23'20568.1
2015-Jan-22 02:29N 46°05' W 122°56'29393.9
2015-Jan-22 02:25N 45°37' W 122°48'620.1
2015-Jan-22 02:07N 45°33' W 122°42'4981.0
2015-Jan-22 01:31N 46°12' W 123°23'435512.5
2015-Jan-22 01:31N 45°37' W 122°48'662.6
2015-Jan-22 01:25N 45°33' W 122°42'34248.7
2015-Jan-22 01:17N 46°05' W 122°56'2026.7
2015-Jan-22 00:31N 46°12' W 123°23'20563.7
2015-Jan-22 00:29N 46°05' W 122°56'29396.9
2015-Jan-22 00:25N 45°37' W 122°48'630.2
2015-Jan-22 00:13N 45°33' W 122°42'3449.2
2015-Jan-21 23:32N 46°05' W 122°56'201409.3
2015-Jan-21 23:31N 46°12' W 123°23'435935.8
2015-Jan-21 23:31N 45°37' W 122°48'661.9
2015-Jan-21 23:25N 45°33' W 122°42'3457.7
2015-Jan-21 22:50N 46°05' W 122°56'201465.7
2015-Jan-21 22:49N 46°12' W 123°23'0 0.0
2015-Jan-21 22:46N 46°12' W 123°23'20586.3
2015-Jan-21 22:44N 46°05' W 122°56'29234.5
2015-Jan-21 22:37N 45°37' W 122°48'43462.1
2015-Jan-21 22:31N 46°12' W 123°23'43749.2
2015-Jan-21 22:28N 45°37' W 122°48'291011.7
2015-Jan-21 22:26N 46°05' W 122°56'2021.1
2015-Jan-21 21:28N 46°12' W 123°23'20577.1
2015-Jan-21 21:26N 46°05' W 122°56'29400.1
2015-Jan-21 21:22N 45°37' W 122°48'2934.6
2015-Jan-21 20:32N 46°05' W 122°56'201382.7
2015-Jan-21 20:31N 46°12' W 123°23'43274.2
2015-Jan-21 20:22N 45°37' W 122°48'0 0.0
2015-Jan-21 19:31N 45°37' W 122°48'432411.7
2015-Jan-21 19:30N 46°12' W 123°23'20333.1
2015-Jan-21 19:26N 46°05' W 122°56'2022.9
2015-Jan-21 18:33N 46°12' W 123°23'201832.1
2015-Jan-21 18:32N 46°05' W 122°56'34290.5
2015-Jan-21 18:25N 45°33' W 122°42'619.3
2015-Jan-21 18:07N 45°37' W 122°48'4368.8
2015-Jan-21 17:30N 46°12' W 123°23'2099.3
2015-Jan-21 17:17N 46°05' W 122°56'29234.6
2015-Jan-21 17:10N 45°37' W 122°48'4368.9
2015-Jan-21 16:33N 46°12' W 123°23'202931.4
2015-Jan-21 16:32N 46°05' W 122°56'29404.7
2015-Jan-21 16:28N 45°37' W 122°48'4346.5
2015-Jan-21 15:33N 46°12' W 123°23'431607.8
2015-Jan-21 15:31N 45°37' W 122°48'29359.7
2015-Jan-21 15:26N 46°05' W 122°56'34106.8
2015-Jan-21 15:07N 45°33' W 122°42'4984.1
2015-Jan-21 14:33N 46°12' W 123°23'492161.8
2015-Jan-21 14:31N 45°33' W 122°42'341009.4
2015-Jan-21 14:29N 46°05' W 122°56'291413.7
2015-Jan-21 14:28N 45°37' W 122°48'2930.8
2015-Jan-21 13:32N 46°05' W 122°56'20472.8
2015-Jan-21 13:30N 46°12' W 123°23'49673.5
2015-Jan-21 13:25N 45°33' W 122°42'656.1
2015-Jan-21 13:19N 45°37' W 122°48'2936.8
2015-Jan-21 12:32N 46°05' W 122°56'291495.9
2015-Jan-21 12:31N 45°37' W 122°48'43578.1
2015-Jan-21 12:27N 46°12' W 123°23'2022.4
2015-Jan-21 11:32N 46°05' W 122°56'20469.8
2015-Jan-21 11:30N 46°12' W 123°23'431624.7
2015-Jan-21 11:28N 45°37' W 122°48'4346.4
2015-Jan-21 10:33N 46°12' W 123°23'202931.4
2015-Jan-21 10:32N 46°05' W 122°56'29169.2
2015-Jan-21 10:22N 45°37' W 122°48'623.7
2015-Jan-21 10:07N 45°33' W 122°42'4984.2
2015-Jan-21 09:32N 46°12' W 123°23'43567.5
2015-Jan-21 09:28N 45°37' W 122°48'29947.0
2015-Jan-21 09:26N 46°05' W 122°56'34289.8
2015-Jan-21 09:19N 45°33' W 122°42'4962.6
2015-Jan-21 08:33N 46°12' W 123°23'20359.2
2015-Jan-21 08:29N 46°05' W 122°56'29414.5
2015-Jan-21 08:25N 45°37' W 122°48'629.7
2015-Jan-21 08:13N 45°33' W 122°42'3449.2
2015-Jan-21 07:32N 46°05' W 122°56'20469.8
2015-Jan-21 07:30N 46°12' W 123°23'49665.8
2015-Jan-21 07:25N 45°33' W 122°42'6109.9
2015-Jan-21 07:22N 45°37' W 122°48'4352.0
2015-Jan-21 06:33N 46°12' W 123°23'20190.8
2015-Jan-21 06:26N 46°05' W 122°56'29419.5
2015-Jan-21 06:22N 45°37' W 122°48'623.7
2015-Jan-21 06:07N 45°33' W 122°42'4984.3
2015-Jan-21 05:33N 46°12' W 123°23'203053.6
2015-Jan-21 05:32N 46°05' W 122°56'29419.6
2015-Jan-21 05:28N 45°37' W 122°48'616.8
2015-Jan-21 05:07N 45°33' W 122°42'4971.9
2015-Jan-21 04:27N 46°12' W 123°23'203053.6
2015-Jan-21 04:26N 46°05' W 122°56'29419.5
2015-Jan-21 04:22N 45°37' W 122°48'623.6
2015-Jan-21 04:07N 45°33' W 122°42'4984.3
2015-Jan-21 03:33N 46°12' W 123°23'20362.8
2015-Jan-21 03:29N 46°05' W 122°56'34504.7
2015-Jan-21 03:25N 45°33' W 122°42'6111.7
2015-Jan-21 03:22N 45°37' W 122°48'4352.0
2015-Jan-21 02:33N 46°12' W 123°23'203053.6
2015-Jan-21 02:32N 46°05' W 122°56'291540.6
2015-Jan-21 02:31N 45°37' W 122°48'2929.2
2015-Jan-21 01:32N 46°05' W 122°56'29417.8
2015-Jan-21 01:28N 45°37' W 122°48'43586.8
2015-Jan-21 01:24N 46°12' W 123°23'49278.4
2015-Jan-21 01:13N 45°33' W 122°42'4971.8
2015-Jan-21 00:33N 46°12' W 123°23'43573.7
2015-Jan-21 00:28N 45°37' W 122°48'29905.2
2015-Jan-21 00:26N 46°05' W 122°56'342053.0
2015-Jan-21 00:25N 45°33' W 122°42'6 6.2
2015-Jan-20 23:28N 45°37' W 122°48'431641.8
2015-Jan-20 23:27N 46°12' W 123°23'2098.4
2015-Jan-20 23:14N 46°05' W 122°56'2029.4
2015-Jan-20 22:33N 46°12' W 123°23'431774.1
2015-Jan-20 22:31N 45°37' W 122°48'29889.8
2015-Jan-20 22:29N 46°05' W 122°56'34126.4
2015-Jan-20 22:13N 45°33' W 122°42'3449.2
2015-Jan-20 21:32N 46°05' W 122°56'20479.0
2015-Jan-20 21:30N 46°12' W 123°23'431715.0
2015-Jan-20 21:28N 45°37' W 122°48'6123.3
2015-Jan-20 21:25N 45°33' W 122°42'4955.4
2015-Jan-20 20:33N 46°12' W 123°23'203053.6
2015-Jan-20 20:32N 46°05' W 122°56'29424.8
2015-Jan-20 20:28N 45°37' W 122°48'4346.3
2015-Jan-20 19:33N 46°12' W 123°23'20357.5
2015-Jan-20 19:29N 46°05' W 122°56'29172.9
2015-Jan-20 19:19N 45°37' W 122°48'629.4
2015-Jan-20 19:07N 45°33' W 122°42'4984.1
2015-Jan-20 18:33N 46°12' W 123°23'203489.8
2015-Jan-20 18:32N 46°05' W 122°56'291563.6
2015-Jan-20 18:31N 45°37' W 122°48'614.7
2015-Jan-20 18:07N 45°33' W 122°42'4984.3
2015-Jan-20 17:33N 46°12' W 123°23'431815.7
2015-Jan-20 17:31N 45°37' W 122°48'29860.0
2015-Jan-20 17:29N 46°05' W 122°56'34513.2
2015-Jan-20 17:25N 45°33' W 122°42'3438.1
2015-Jan-20 16:32N 46°05' W 122°56'20491.9
2015-Jan-20 16:30N 46°12' W 123°23'43567.5
2015-Jan-20 16:25N 45°37' W 122°48'629.4
2015-Jan-20 16:13N 45°33' W 122°42'4972.0
2015-Jan-20 15:33N 46°12' W 123°23'431754.0
2015-Jan-20 15:31N 45°37' W 122°48'29341.8
2015-Jan-20 15:26N 46°05' W 122°56'34290.5
2015-Jan-20 15:19N 45°33' W 122°42'4962.6
2015-Jan-20 14:33N 46°12' W 123°23'20359.2
2015-Jan-20 14:29N 46°05' W 122°56'291720.0
2015-Jan-20 14:28N 45°37' W 122°48'4346.3
2015-Jan-20 13:33N 46°12' W 123°23'202931.4
2015-Jan-20 13:32N 46°05' W 122°56'29430.0
2015-Jan-20 13:28N 45°37' W 122°48'623.5
2015-Jan-20 13:13N 45°33' W 122°42'3449.2
2015-Jan-20 12:32N 46°05' W 122°56'20469.8
2015-Jan-20 12:30N 46°12' W 123°23'431859.4
2015-Jan-20 12:28N 45°37' W 122°48'639.1
2015-Jan-20 12:19N 45°33' W 122°42'6 7.3
2015-Jan-20 11:31N 45°37' W 122°48'621090.7
2015-Jan-20 11:31N 45°33' W 122°42'491805.2
2015-Jan-20 11:30N 46°12' W 123°23'203053.6
2015-Jan-20 11:29N 46°05' W 122°56'2021.6
2015-Jan-20 10:33N 46°12' W 123°23'202818.7
2015-Jan-20 10:32N 46°05' W 122°56'342053.0
2015-Jan-20 10:31N 45°33' W 122°42'4949.8
2015-Jan-20 09:33N 46°12' W 123°23'20359.2
2015-Jan-20 09:29N 46°05' W 122°56'29248.1
2015-Jan-20 09:22N 45°37' W 122°48'6117.2
2015-Jan-20 09:19N 45°33' W 122°42'4958.8
2015-Jan-20 08:30N 46°12' W 123°23'20355.8
2015-Jan-20 08:26N 46°05' W 122°56'29435.5
2015-Jan-20 08:22N 45°37' W 122°48'639.1
2015-Jan-20 08:13N 45°33' W 122°42'4966.9
2015-Jan-20 07:30N 46°12' W 123°23'431882.1
2015-Jan-20 07:28N 45°37' W 122°48'29839.0
2015-Jan-20 07:26N 46°05' W 122°56'34106.4
2015-Jan-20 07:07N 45°33' W 122°42'4984.2
2015-Jan-20 06:33N 46°12' W 123°23'203489.8
2015-Jan-20 06:32N 46°05' W 122°56'29107.7
2015-Jan-20 06:16N 45°37' W 122°48'6115.9
2015-Jan-20 06:13N 45°33' W 122°42'4971.9
2015-Jan-20 05:33N 46°12' W 123°23'202818.7
2015-Jan-20 05:32N 46°05' W 122°56'29174.1
2015-Jan-20 05:22N 45°37' W 122°48'623.3
2015-Jan-20 05:07N 45°33' W 122°42'6 9.8
2015-Jan-20 04:31N 45°37' W 122°48'610552.9
2015-Jan-20 04:31N 45°33' W 122°42'49632.2
2015-Jan-20 04:27N 46°12' W 123°23'20129.7
2015-Jan-20 04:17N 46°05' W 122°56'2022.8
2015-Jan-20 03:24N 46°12' W 123°23'203489.8
2015-Jan-20 03:23N 46°05' W 122°56'291911.1
2015-Jan-20 03:22N 45°37' W 122°48'623.3
2015-Jan-20 03:07N 45°33' W 122°42'6 8.4
2015-Jan-20 02:25N 45°37' W 122°48'65276.5
2015-Jan-20 02:25N 45°33' W 122°42'34969.0
2015-Jan-20 02:23N 46°05' W 122°56'2024.2
2015-Jan-20 01:33N 46°12' W 123°23'49394.4
2015-Jan-20 01:25N 45°33' W 122°42'34399.8
2015-Jan-20 01:20N 46°05' W 122°56'292150.0
2015-Jan-20 01:19N 45°37' W 122°48'4355.0
2015-Jan-20 00:33N 46°12' W 123°23'492161.8
2015-Jan-20 00:31N 45°33' W 122°42'34402.4
2015-Jan-20 00:26N 46°05' W 122°56'29444.8
2015-Jan-20 00:22N 45°37' W 122°48'2934.3
2015-Jan-19 23:32N 46°05' W 122°56'20482.1
2015-Jan-19 23:30N 46°12' W 123°23'431978.6
2015-Jan-19 23:28N 45°37' W 122°48'623.3
2015-Jan-19 23:13N 45°33' W 122°42'4971.8
2015-Jan-19 22:33N 46°12' W 123°23'203186.3
2015-Jan-19 22:32N 46°05' W 122°56'29446.8
2015-Jan-19 22:28N 45°37' W 122°48'638.3
2015-Jan-19 22:19N 45°33' W 122°42'4962.6
2015-Jan-19 21:33N 46°12' W 123°23'43607.7
2015-Jan-19 21:28N 45°37' W 122°48'29211.1
2015-Jan-19 21:20N 46°05' W 122°56'2024.1
2015-Jan-19 20:30N 46°12' W 123°23'432058.0
2015-Jan-19 20:28N 45°37' W 122°48'29331.9
2015-Jan-19 20:23N 46°05' W 122°56'0 0.0
2015-Jan-19 19:32N 46°05' W 122°56'20460.9
2015-Jan-19 19:30N 46°12' W 123°23'43356.4
2015-Jan-19 19:22N 45°37' W 122°48'4351.7
2015-Jan-19 18:33N 46°12' W 123°23'20357.5
2015-Jan-19 18:29N 46°05' W 122°56'292106.1
2015-Jan-19 18:28N 45°37' W 122°48'2927.7
2015-Jan-19 17:26N 46°05' W 122°56'20466.8
2015-Jan-19 17:24N 46°12' W 123°23'432236.9
2015-Jan-19 17:22N 45°37' W 122°48'638.1
2015-Jan-19 17:13N 45°33' W 122°42'6 8.4
2015-Jan-19 16:31N 45°37' W 122°48'61917.3
2015-Jan-19 16:31N 45°33' W 122°42'342883.9
2015-Jan-19 16:30N 46°05' W 122°56'201357.1
2015-Jan-19 16:30N 46°12' W 123°23'0 0.0
2015-Jan-19 15:33N 46°12' W 123°23'492084.6
2015-Jan-19 15:31N 45°33' W 122°42'6124.2
2015-Jan-19 15:28N 45°37' W 122°48'29446.7
2015-Jan-19 15:24N 46°05' W 122°56'0 0.0
2015-Jan-19 14:33N 46°05' W 122°56'201285.7
2015-Jan-19 14:33N 46°12' W 123°23'43614.9
2015-Jan-19 14:28N 45°37' W 122°48'2931.3
2015-Jan-19 13:33N 46°05' W 122°56'201285.7
2015-Jan-19 13:33N 46°12' W 123°23'43617.3
2015-Jan-19 13:28N 45°37' W 122°48'638.2
2015-Jan-19 13:19N 45°33' W 122°42'4962.6
2015-Jan-19 12:33N 46°12' W 123°23'432173.7
2015-Jan-19 12:31N 45°37' W 122°48'29108.2
2015-Jan-19 12:15N 46°05' W 122°56'3445.5
2015-Jan-19 11:31N 45°33' W 122°42'343105.8
2015-Jan-19 11:30N 46°05' W 122°56'201285.8
2015-Jan-19 11:30N 46°12' W 123°23'432174.2
2015-Jan-19 11:28N 45°37' W 122°48'2931.3
2015-Jan-19 10:33N 46°05' W 122°56'20310.5
2015-Jan-19 10:30N 46°12' W 123°23'43195.9
2015-Jan-19 10:16N 45°37' W 122°48'0 0.0
2015-Jan-19 09:31N 45°37' W 122°48'291947.5
2015-Jan-19 09:30N 46°05' W 122°56'201263.5
2015-Jan-19 09:30N 46°12' W 123°23'2021.8
2015-Jan-19 08:34N 46°05' W 122°56'34859.0
2015-Jan-19 08:31N 45°33' W 122°42'491768.8
2015-Jan-19 08:30N 46°12' W 123°23'43361.5
2015-Jan-19 08:22N 45°37' W 122°48'2935.2
2015-Jan-19 07:33N 46°05' W 122°56'201357.1
2015-Jan-19 07:33N 46°12' W 123°23'43617.3
2015-Jan-19 07:28N 45°37' W 122°48'6108.2
2015-Jan-19 07:25N 45°33' W 122°42'0 0.0
2015-Jan-19 06:31N 45°33' W 122°42'4917510.8
2015-Jan-19 06:31N 46°12' W 123°23'202364.1
2015-Jan-19 06:31N 46°05' W 122°56'29832.2
2015-Jan-19 06:28N 45°37' W 122°48'4344.8
2015-Jan-19 05:31N 46°12' W 123°23'202527.1
2015-Jan-19 05:31N 46°05' W 122°56'29812.6
2015-Jan-19 05:28N 45°37' W 122°48'4344.9
2015-Jan-19 04:31N 46°12' W 123°23'202035.7
2015-Jan-19 04:30N 46°05' W 122°56'29845.9
2015-Jan-19 04:28N 45°37' W 122°48'623.0
2015-Jan-19 04:13N 45°33' W 122°42'3450.9
2015-Jan-19 03:33N 46°05' W 122°56'20498.5
2015-Jan-19 03:31N 46°12' W 123°23'49501.7
2015-Jan-19 03:25N 45°33' W 122°42'6129.4
2015-Jan-19 03:22N 45°37' W 122°48'6 6.8
2015-Jan-19 02:31N 45°33' W 122°42'342954.3
2015-Jan-19 02:30N 46°05' W 122°56'29852.9
2015-Jan-19 02:28N 45°37' W 122°48'436173.3
2015-Jan-19 02:28N 46°12' W 123°23'2022.4
2015-Jan-19 01:33N 46°05' W 122°56'20144.8
2015-Jan-19 01:25N 46°12' W 123°23'43995.7
2015-Jan-19 01:22N 45°37' W 122°48'623.0
2015-Jan-19 01:07N 45°33' W 122°42'6 9.9
2015-Jan-19 00:32N 45°37' W 122°48'291638.1
2015-Jan-19 00:30N 46°05' W 122°56'20222.8
2015-Jan-19 00:25N 46°12' W 123°23'0 0.0
2015-Jan-18 23:31N 46°12' W 123°23'202442.9
2015-Jan-18 23:31N 46°05' W 122°56'29213.2
2015-Jan-18 23:22N 45°37' W 122°48'623.0
2015-Jan-18 23:07N 45°33' W 122°42'6 9.9
2015-Jan-18 22:32N 45°37' W 122°48'434979.0
2015-Jan-18 22:31N 46°12' W 123°23'202290.2
2015-Jan-18 22:30N 46°05' W 122°56'34379.7
2015-Jan-18 22:25N 45°33' W 122°42'4953.9
2015-Jan-18 21:31N 46°12' W 123°23'20344.1
2015-Jan-18 21:27N 46°05' W 122°56'29215.5
2015-Jan-18 21:19N 45°37' W 122°48'0 0.0
2015-Jan-18 20:32N 45°37' W 122°48'291692.1
2015-Jan-18 20:30N 46°05' W 122°56'2084.7
2015-Jan-18 20:16N 46°12' W 123°23'2028.7
2015-Jan-18 19:33N 46°05' W 122°56'29348.7
2015-Jan-18 19:29N 45°37' W 122°48'435145.0
2015-Jan-18 19:28N 46°12' W 123°23'4345.5
2015-Jan-18 18:32N 45°37' W 122°48'291638.1
2015-Jan-18 18:30N 46°05' W 122°56'20145.7
2015-Jan-18 18:22N 46°12' W 123°23'2023.7
2015-Jan-18 17:30N 46°05' W 122°56'29889.6
2015-Jan-18 17:29N 45°37' W 122°48'435511.8
2015-Jan-18 17:28N 46°12' W 123°23'49139.6
2015-Jan-18 17:07N 45°33' W 122°42'3452.7
2015-Jan-18 16:29N 46°05' W 122°56'295733.2
2015-Jan-18 16:29N 45°37' W 122°48'434978.4
2015-Jan-18 16:28N 46°12' W 123°23'49195.9
2015-Jan-18 16:13N 45°33' W 122°42'4960.7
2015-Jan-18 15:25N 46°12' W 123°23'431035.8
2015-Jan-18 15:23N 45°37' W 122°48'29633.1
2015-Jan-18 15:20N 46°05' W 122°56'2935.6
2015-Jan-18 14:32N 45°37' W 122°48'434978.4
2015-Jan-18 14:31N 46°12' W 123°23'20568.1
2015-Jan-18 14:29N 46°05' W 122°56'34540.7
2015-Jan-18 14:25N 45°33' W 122°42'3437.9
2015-Jan-18 13:32N 46°05' W 122°56'342954.3
2015-Jan-18 13:31N 45°33' W 122°42'4929184.7
2015-Jan-18 13:31N 46°12' W 123°23'43472.0
2015-Jan-18 13:26N 45°37' W 122°48'2932.0
2015-Jan-18 12:32N 46°05' W 122°56'295159.9
2015-Jan-18 12:32N 45°37' W 122°48'628.3
2015-Jan-18 12:19N 45°33' W 122°42'49936.4
2015-Jan-18 12:16N 46°12' W 123°23'2027.6
2015-Jan-18 11:32N 46°05' W 122°56'296882.7
2015-Jan-18 11:32N 45°37' W 122°48'43392.7
2015-Jan-18 11:25N 46°12' W 123°23'2023.0
2015-Jan-18 10:32N 46°05' W 122°56'201409.3
2015-Jan-18 10:31N 46°12' W 123°23'431079.2
2015-Jan-18 10:29N 45°37' W 122°48'2930.3
2015-Jan-18 09:32N 46°05' W 122°56'201495.6
2015-Jan-18 09:31N 46°12' W 123°23'49496.1
2015-Jan-18 09:25N 45°33' W 122°42'6140.6
2015-Jan-18 09:23N 45°37' W 122°48'2933.9
2015-Jan-18 08:32N 46°05' W 122°56'29540.4
2015-Jan-18 08:29N 45°37' W 122°48'43714.7
2015-Jan-18 08:25N 46°12' W 123°23'49328.0
2015-Jan-18 08:16N 45°33' W 122°42'6 7.9
2015-Jan-18 07:32N 45°37' W 122°48'6101.0
2015-Jan-18 07:28N 45°33' W 122°42'4958369.3
2015-Jan-18 07:28N 46°12' W 123°23'20148.1
2015-Jan-18 07:20N 46°05' W 122°56'0 0.0
2015-Jan-18 06:32N 46°05' W 122°56'34555.6
2015-Jan-18 06:28N 45°33' W 122°42'4917510.8
2015-Jan-18 06:28N 46°12' W 123°23'431064.4
2015-Jan-18 06:26N 45°37' W 122°48'2932.0
2015-Jan-18 05:32N 46°05' W 122°56'297940.0
2015-Jan-18 05:32N 45°37' W 122°48'434171.6
2015-Jan-18 05:31N 46°12' W 123°23'49330.4
2015-Jan-18 05:22N 45°33' W 122°42'4957.1
2015-Jan-18 04:31N 46°12' W 123°23'201263.5
2015-Jan-18 04:30N 46°05' W 122°56'291214.3
2015-Jan-18 04:29N 45°37' W 122°48'614.3
2015-Jan-18 04:04N 45°33' W 122°42'3465.0
2015-Jan-18 03:33N 46°05' W 122°56'291274.3
2015-Jan-18 03:32N 45°37' W 122°48'43201.8
2015-Jan-18 03:19N 46°12' W 123°23'0 0.0
2015-Jan-18 02:25N 46°12' W 123°23'431086.8
2015-Jan-18 02:23N 45°37' W 122°48'29126.9
2015-Jan-18 02:09N 46°05' W 122°56'0 0.0
2015-Jan-18 01:33N 46°05' W 122°56'291258.5
2015-Jan-18 01:32N 45°37' W 122°48'43384.9
2015-Jan-18 01:25N 46°12' W 123°23'4348.2
2015-Jan-18 00:32N 45°37' W 122°48'433674.6
2015-Jan-18 00:31N 46°12' W 123°23'20317.3
2015-Jan-18 00:27N 46°05' W 122°56'2929.4
2015-Jan-17 23:29N 45°37' W 122°48'433858.3
2015-Jan-17 23:28N 46°12' W 123°23'201332.5
2015-Jan-17 23:27N 46°05' W 122°56'2931.1
2015-Jan-17 22:32N 45°37' W 122°48'43704.8
2015-Jan-17 22:28N 46°12' W 123°23'201263.5
2015-Jan-17 22:27N 46°05' W 122°56'2931.0
2015-Jan-17 21:32N 45°37' W 122°48'291042.6
2015-Jan-17 21:30N 46°05' W 122°56'20600.7
2015-Jan-17 21:28N 46°12' W 123°23'2022.2
2015-Jan-17 20:33N 46°05' W 122°56'291228.8
2015-Jan-17 20:32N 45°37' W 122°48'43689.1
2015-Jan-17 20:28N 46°12' W 123°23'49497.5
2015-Jan-17 20:22N 45°33' W 122°42'0 0.0
2015-Jan-17 19:33N 45°33' W 122°42'49568.5
2015-Jan-17 19:28N 46°12' W 123°23'43488.4
2015-Jan-17 19:23N 45°37' W 122°48'291063.9
2015-Jan-17 19:21N 46°05' W 122°56'0 0.0
2015-Jan-17 18:33N 46°05' W 122°56'291243.4
2015-Jan-17 18:32N 45°37' W 122°48'43381.1
2015-Jan-17 18:25N 46°12' W 123°23'49956.9
2015-Jan-17 18:22N 45°33' W 122°42'3439.0
2015-Jan-17 17:30N 46°05' W 122°56'34910.7
2015-Jan-17 17:28N 45°33' W 122°42'49326.7
2015-Jan-17 17:19N 46°12' W 123°23'43312.4
2015-Jan-17 17:11N 45°37' W 122°48'2945.7
2015-Jan-17 16:33N 46°05' W 122°56'20238.7
2015-Jan-17 16:28N 46°12' W 123°23'43490.0
2015-Jan-17 16:23N 45°37' W 122°48'6421.8
2015-Jan-17 16:22N 45°33' W 122°42'3441.4
2015-Jan-17 15:33N 46°05' W 122°56'20239.5
2015-Jan-17 15:28N 46°12' W 123°23'4943777.0
2015-Jan-17 15:28N 45°33' W 122°42'668.0
2015-Jan-17 15:23N 45°37' W 122°48'2934.7
2015-Jan-17 14:33N 46°05' W 122°56'34387.0
2015-Jan-17 14:28N 45°33' W 122°42'643.2
2015-Jan-17 14:20N 45°37' W 122°48'43382.0
2015-Jan-17 14:13N 46°12' W 123°23'2030.6
2015-Jan-17 13:33N 46°05' W 122°56'  

Dump ship's entire track history